NOAA Web Site Link Tides and Currents Home Page Transparent placeholder image

PORTS® Data Listing: 8638901 CBBT, Chesapeake Channel, VA

CO-OPS RAW PORTS DATA

************************      PRELIMINARY DATA      ************************** 

     THIS RAW DATA HAS NOT BEEN SUBJECT TO THE NATIONAL OCEAN SERVICE'S        
     QUALITY CONTROL OR QUALITY ASSURANCE PROCEDURES AND DOES NOT MEET         
     THE CRITERIA AND STANDARDS OF OFFICIAL NATIONAL OCEAN SERVICE             
     DATA.  IT IS RELEASED FOR LIMITED PUBLIC USE AS PRELIMINARY DATA TO       
     BE USED ONLY WITH APPROPRIATE CAUTION.                                    

************************      PRELIMINARY DATA      ************************** 


       CD   -   Calendar date
       T    -   Time
       TZ   -   Timezone
       PW   -   Predicted water level (feet above MLLW)
       OW   -   Observed water level (feet above MLLW)
       WS   -   Wind speed (knots)
       WD   -   Wind direction (degrees true)
       WG   -   Wind gust (knots)
       AT   -   Air temperature (degrees farenheit)
       WT   -   Water temperature (degrees farenheit)
       AP   -   Air pressure (millibars)
       SA   -   Salinty (PSU - Practical Salinity Units)
       SG   -   Specific gravity
       RH   -   Relative humidity
       AG   -   Air gap (feet)
       VI   -   Visibility (nautical miles)

       ** NOTE **
       A variable that has its data fields filled with "9"s, indicates that
       data was not collected for that sample period.
       **********

NOTICE OF PROVISIONAL DATUM
These datums and any data referred to said datum are PROVISIONAL and
subject to revision until they have been thoroughly reviewed and received final
approval.  Subsequent review based on field inspections and additional
measurements may result in revisions to the data and datums.  Data users are
cautioned to consider the conditional nature of this information before using
it for critical decisions such as those that concern physical or public safety.
Only after meeting all standards for quality control assurance will the datums
be classified as Accepted Datums.

STATION NAME: CBBT, Chesapeake Channel (8638901)
****************************************************************************************************
    CD       T    TZ    PW     OW    WS   WD   WG    AT    WT    AP    SA    SG     RH    AG   VI
****************************************************************************************************
2018/01/16 00:18 EST    0.10   0.71    8    3    9  32.9 -99.9 1029.7 -9.9 -9.999 -99.9 -99.99 -9.99
2018/01/16 00:24 EST    0.07   0.68    8    5    9  32.9 -99.9 1029.7 -9.9 -9.999 -99.9 -99.99 -9.99
2018/01/16 00:30 EST    0.04   0.66    9  354   10  32.9 -99.9 1029.7 -9.9 -9.999 -99.9 -99.99 -9.99
2018/01/16 00:36 EST    0.02   0.58   10  345   11  32.9 -99.9 1029.6 -9.9 -9.999 -99.9 -99.99 -9.99
2018/01/16 00:42 EST   -0.01   0.57   10  348   12  33.1 -99.9 1029.7 -9.9 -9.999 -99.9 -99.99 -9.99
2018/01/16 00:48 EST   -0.03   0.51   11  346   13  32.9 -99.9 1029.7 -9.9 -9.999 -99.9 -99.99 -9.99
2018/01/16 00:54 EST   -0.04   0.48   11  340   13  32.7 -99.9 1029.6 -9.9 -9.999 -99.9 -99.99 -9.99
2018/01/16 01:00 EST   -0.06   0.44   11  347   13  32.5 -99.9 1029.3 -9.9 -9.999 -99.9 -99.99 -9.99
2018/01/16 01:06 EST   -0.07   0.43   12  344   13  32.5 -99.9 1029.4 -9.9 -9.999 -99.9 -99.99 -9.99
2018/01/16 01:12 EST   -0.07   0.44   12  356   13  32.5 -99.9 1029.3 -9.9 -9.999 -99.9 -99.99 -9.99
2018/01/16 01:18 EST   -0.08   0.40   11  344   13  32.5 -99.9 1029.5 -9.9 -9.999 -99.9 -99.99 -9.99
2018/01/16 01:24 EST   -0.08   0.40   12  346   13  32.4 -99.9 1029.6 -9.9 -9.999 -99.9 -99.99 -9.99
2018/01/16 01:30 EST   -0.07   0.39   10  352   12  32.4 -99.9 1029.5 -9.9 -9.999 -99.9 -99.99 -9.99
2018/01/16 01:36 EST   -0.07   0.40   10  353   12  32.4 -99.9 1029.4 -9.9 -9.999 -99.9 -99.99 -9.99
2018/01/16 01:42 EST   -0.06   0.43   10    3   11  32.4 -99.9 1029.4 -9.9 -9.999 -99.9 -99.99 -9.99
2018/01/16 01:48 EST   -0.04   0.44    9    2   11  32.4 -99.9 1029.3 -9.9 -9.999 -99.9 -99.99 -9.99
2018/01/16 01:54 EST   -0.03   0.49   10    6   11  32.2 -99.9 1029.3 -9.9 -9.999 -99.9 -99.99 -9.99
2018/01/16 02:00 EST   -0.01   0.47    8    5   10  32.4 -99.9 1029.2 -9.9 -9.999 -99.9 -99.99 -9.99
2018/01/16 02:06 EST    0.02   0.54    8  353   11  32.2 -99.9 1029.3 -9.9 -9.999 -99.9 -99.99 -9.99
2018/01/16 02:12 EST    0.04   0.56   10  355   11  32.2 -99.9 1029.4 -9.9 -9.999 -99.9 -99.99 -9.99
2018/01/16 02:18 EST    0.07   0.60   11  346   12  32.4 -99.9 1029.4 -9.9 -9.999 -99.9 -99.99 -9.99
2018/01/16 02:24 EST    0.10   0.67   10  348   12  32.2 -99.9 1029.6 -9.9 -9.999 -99.9 -99.99 -9.99
2018/01/16 02:30 EST    0.14   0.70   11  340   12  32.2 -99.9 1029.7 -9.9 -9.999 -99.9 -99.99 -9.99
2018/01/16 02:36 EST    0.18   0.77   11  354   13  31.8 -99.9 1029.6 -9.9 -9.999 -99.9 -99.99 -9.99
2018/01/16 02:42 EST    0.22   0.82   11  341   12  32.0 -99.9 1029.7 -9.9 -9.999 -99.9 -99.99 -9.99
2018/01/16 02:48 EST    0.26   0.89   11  340   13  32.2 -99.9 1029.7 -9.9 -9.999 -99.9 -99.99 -9.99
2018/01/16 02:54 EST    0.31   0.90   10  341   13  32.2 -99.9 1029.7 -9.9 -9.999 -99.9 -99.99 -9.99
2018/01/16 03:00 EST    0.35   0.94   11  355   12  32.0 -99.9 1029.7 -9.9 -9.999 -99.9 -99.99 -9.99
2018/01/16 03:06 EST    0.41   1.05   11  342   12  31.8 -99.9 1029.6 -9.9 -9.999 -99.9 -99.99 -9.99
2018/01/16 03:12 EST    0.46   1.10   11  336   12  32.0 -99.9 1029.5 -9.9 -9.999 -99.9 -99.99 -9.99
2018/01/16 03:18 EST    0.51   1.14   10  345   13  32.0 -99.9 1029.5 -9.9 -9.999 -99.9 -99.99 -9.99
2018/01/16 03:24 EST    0.57   1.18   11  339   12  32.0 -99.9 1029.5 -9.9 -9.999 -99.9 -99.99 -9.99
2018/01/16 03:30 EST    0.63   1.25   10  342   12  31.8 -99.9 1029.5 -9.9 -9.999 -99.9 -99.99 -9.99
2018/01/16 03:36 EST    0.69   1.31   11  336   12  32.0 -99.9 1029.7 -9.9 -9.999 -99.9 -99.99 -9.99
2018/01/16 03:42 EST    0.76   1.34   10  337   11  32.0 -99.9 1029.7 -9.9 -9.999 -99.9 -99.99 -9.99
2018/01/16 03:48 EST    0.82   1.41   11  337   12  31.8 -99.9 1029.7 -9.9 -9.999 -99.9 -99.99 -9.99
2018/01/16 03:54 EST    0.89   1.51   10  339   11  31.8 -99.9 1029.6 -9.9 -9.999 -99.9 -99.99 -9.99
2018/01/16 04:00 EST    0.95   1.54   10  350   11  31.8 -99.9 1029.7 -9.9 -9.999 -99.9 -99.99 -9.99
2018/01/16 04:06 EST    1.02   1.61   10  358   12  31.8 -99.9 1029.7 -9.9 -9.999 -99.9 -99.99 -9.99
2018/01/16 04:12 EST    1.09   1.66   10  337   11  31.8 -99.9 1029.8 -9.9 -9.999 -99.9 -99.99 -9.99
2018/01/16 04:18 EST    1.16   1.77   10  340   13  32.0 -99.9 1029.8 -9.9 -9.999 -99.9 -99.99 -9.99
2018/01/16 04:24 EST    1.23   1.82   11  342   13  31.8 -99.9 1029.7 -9.9 -9.999 -99.9 -99.99 -9.99
2018/01/16 04:30 EST    1.30   1.89   11  346   12  31.8 -99.9 1029.7 -9.9 -9.999 -99.9 -99.99 -9.99
2018/01/16 04:36 EST    1.37   1.91   11  334   12  31.8 -99.9 1029.7 -9.9 -9.999 -99.9 -99.99 -9.99
2018/01/16 04:42 EST    1.44   2.00   11  356   12  31.8 -99.9 1029.7 -9.9 -9.999 -99.9 -99.99 -9.99
2018/01/16 04:48 EST    1.52   2.07   11  340   12  31.8 -99.9 1029.6 -9.9 -9.999 -99.9 -99.99 -9.99
2018/01/16 04:54 EST    1.59   2.09   11  338   12  31.8 -99.9 1029.7 -9.9 -9.999 -99.9 -99.99 -9.99
2018/01/16 05:00 EST    1.66   2.19   11  342   12  31.8 -99.9 1029.8 -9.9 -9.999 -99.9 -99.99 -9.99
2018/01/16 05:06 EST    1.73   2.21   11  343   12  31.8 -99.9 1029.9 -9.9 -9.999 -99.9 -99.99 -9.99
2018/01/16 05:12 EST    1.79   2.30   11  351   12  32.0 -99.9 1030.1 -9.9 -9.999 -99.9 -99.99 -9.99
2018/01/16 05:18 EST    1.86   2.38   12  353   13  31.6 -99.9 1030.2 -9.9 -9.999 -99.9 -99.99 -9.99
2018/01/16 05:24 EST    1.93   2.43   12  347   14  31.8 -99.9 1030.3 -9.9 -9.999 -99.9 -99.99 -9.99
2018/01/16 05:30 EST    1.99   2.55   12  334   14  31.8 -99.9 1030.5 -9.9 -9.999 -99.9 -99.99 -9.99
2018/01/16 05:36 EST    2.05   2.58   12  331   14  31.8 -99.9 1030.6 -9.9 -9.999 -99.9 -99.99 -9.99
2018/01/16 05:42 EST    2.11   2.65   11  334   13  31.8 -99.9 1030.6 -9.9 -9.999 -99.9 -99.99 -9.99
2018/01/16 05:48 EST    2.17   2.68   12  332   14  31.8 -99.9 1030.6 -9.9 -9.999 -99.9 -99.99 -9.99
2018/01/16 05:54 EST    2.23   2.72   12  334   14  31.8 -99.9 1030.6 -9.9 -9.999 -99.9 -99.99 -9.99
2018/01/16 06:00 EST    2.28   2.79   12  347   14  31.6 -99.9 1030.7 -9.9 -9.999 -99.9 -99.99 -9.99
2018/01/16 06:06 EST    2.33   2.80   12  341   13  31.5 -99.9 1030.7 -9.9 -9.999 -99.9 -99.99 -9.99
2018/01/16 06:12 EST    2.38   2.87   11  347   14  31.3 -99.9 1030.7 -9.9 -9.999 -99.9 -99.99 -9.99
2018/01/16 06:18 EST    2.43   2.90   11  342   13  31.6 -99.9 1030.6 -9.9 -9.999 -99.9 -99.99 -9.99
2018/01/16 06:24 EST    2.47   2.93   11  340   13  31.6 -99.9 1030.7 -9.9 -9.999 -99.9 -99.99 -9.99
2018/01/16 06:30 EST    2.51   3.01   10  331   12  31.6 -99.9 1030.7 -9.9 -9.999 -99.9 -99.99 -9.99
2018/01/16 06:36 EST    2.54   3.05   10  340   12  31.8 -99.9 1030.7 -9.9 -9.999 -99.9 -99.99 -9.99
2018/01/16 06:42 EST    2.57   3.11   10  344   12  31.8 -99.9 1030.6 -9.9 -9.999 -99.9 -99.99 -9.99
2018/01/16 06:48 EST    2.60   3.12    9  359   12  31.6 -99.9 1030.6 -9.9 -9.999 -99.9 -99.99 -9.99
2018/01/16 06:54 EST    2.63   3.14    9  359   10  31.3 -99.9 1030.7 -9.9 -9.999 -99.9 -99.99 -9.99
2018/01/16 07:00 EST    2.65   3.19    7  338   12  31.1 -99.9 1030.8 -9.9 -9.999 -99.9 -99.99 -9.99
2018/01/16 07:06 EST    2.67   3.24    9  330   11  31.5 -99.9 1031.0 -9.9 -9.999 -99.9 -99.99 -9.99
2018/01/16 07:12 EST    2.68   3.24   10    5   12  31.3 -99.9 1031.1 -9.9 -9.999 -99.9 -99.99 -9.99
2018/01/16 07:18 EST    2.70   3.25   10    5   12  31.5 -99.9 1031.0 -9.9 -9.999 -99.9 -99.99 -9.99
2018/01/16 07:24 EST    2.71   3.26    9    8   12  31.5 -99.9 1031.0 -9.9 -9.999 -99.9 -99.99 -9.99
2018/01/16 07:30 EST    2.71   3.28   10    8   12  31.3 -99.9 1031.0 -9.9 -9.999 -99.9 -99.99 -9.99
2018/01/16 07:36 EST    2.72   3.26   10  339   12  31.5 -99.9 1030.9 -9.9 -9.999 -99.9 -99.99 -9.99
2018/01/16 07:42 EST    2.72   3.32   11  342   12  31.3 -99.9 1031.0 -9.9 -9.999 -99.9 -99.99 -9.99
2018/01/16 07:48 EST    2.72   3.30   11  334   12  31.5 -99.9 1031.0 -9.9 -9.999 -99.9 -99.99 -9.99
2018/01/16 07:54 EST    2.71   3.33   11  329   13  31.3 -99.9 1031.0 -9.9 -9.999 -99.9 -99.99 -9.99
2018/01/16 08:00 EST    2.70   3.31   11  336   13  31.3 -99.9 1031.0 -9.9 -9.999 -99.9 -99.99 -9.99
2018/01/16 08:06 EST    2.69   3.31   11  338   13  31.3 -99.9 1031.0 -9.9 -9.999 -99.9 -99.99 -9.99
2018/01/16 08:12 EST    2.68   3.31   11    6   14  31.1 -99.9 1030.9 -9.9 -9.999 -99.9 -99.99 -9.99
2018/01/16 08:18 EST    2.67   3.29   12  341   14  31.1 -99.9 1030.9 -9.9 -9.999 -99.9 -99.99 -9.99
2018/01/16 08:24 EST    2.65   3.26   12  345   14  31.1 -99.9 1030.7 -9.9 -9.999 -99.9 -99.99 -9.99
2018/01/16 08:30 EST    2.63   3.26   11  345   15  31.3 -99.9 1030.6 -9.9 -9.999 -99.9 -99.99 -9.99
2018/01/16 08:36 EST    2.60   3.23   11  351   14  31.1 -99.9 1030.7 -9.9 -9.999 -99.9 -99.99 -9.99
2018/01/16 08:42 EST    2.58   3.15   11  343   13  31.3 -99.9 1030.7 -9.9 -9.999 -99.9 -99.99 -9.99
2018/01/16 08:48 EST    2.55   3.11   11  351   13  31.3 -99.9 1030.8 -9.9 -9.999 -99.9 -99.99 -9.99
2018/01/16 08:54 EST    2.52   3.08   11  341   13  31.3 -99.9 1030.9 -9.9 -9.999 -99.9 -99.99 -9.99
2018/01/16 09:00 EST    2.49   3.04   11  360   13  30.7 -99.9 1030.9 -9.9 -9.999 -99.9 -99.99 -9.99
2018/01/16 09:06 EST    2.45   2.98    9  358   12  31.1 -99.9 1030.8 -9.9 -9.999 -99.9 -99.99 -9.99
2018/01/16 09:12 EST    2.41   2.97    8  356   11  31.3 -99.9 1030.9 -9.9 -9.999 -99.9 -99.99 -9.99
2018/01/16 09:18 EST    2.37   2.94    8    1   10  30.9 -99.9 1031.0 -9.9 -9.999 -99.9 -99.99 -9.99
2018/01/16 09:24 EST    2.33   2.91    7    8    9  31.1 -99.9 1030.9 -9.9 -9.999 -99.9 -99.99 -9.99
2018/01/16 09:30 EST    2.28   2.87    7   31    8  31.1 -99.9 1030.9 -9.9 -9.999 -99.9 -99.99 -9.99
2018/01/16 09:36 EST    2.23   2.82    5   15    9  30.7 -99.9 1031.0 -9.9 -9.999 -99.9 -99.99 -9.99
2018/01/16 09:42 EST    2.18   2.78    4  345    7  30.9 -99.9 1031.1 -9.9 -9.999 -99.9 -99.99 -9.99
2018/01/16 09:48 EST    2.12   2.76    4  331    6  31.1 -99.9 1031.1 -9.9 -9.999 -99.9 -99.99 -9.99
2018/01/16 09:54 EST    2.07   2.70    3  350    5  31.3 -99.9 1031.0 -9.9 -9.999 -99.9 -99.99 -9.99
2018/01/16 10:00 EST    2.01   2.65    5    7    6  31.3 -99.9 1031.0 -9.9 -9.999 -99.9 -99.99 -9.99
2018/01/16 10:06 EST    1.95   2.58    5  345    7  31.1 -99.9 1031.1 -9.9 -9.999 -99.9 -99.99 -9.99
2018/01/16 10:12 EST    1.88   2.51    9  350   10  31.3 -99.9 1031.1 -9.9 -9.999 -99.9 -99.99 -9.99
2018/01/16 10:18 EST    1.82   2.44    9  354   10  31.3 -99.9 1031.1 -9.9 -9.999 -99.9 -99.99 -9.99
2018/01/16 10:24 EST    1.75   2.39    7  351    9  31.6 -99.9 1031.0 -9.9 -9.999 -99.9 -99.99 -9.99
2018/01/16 10:30 EST    1.68   2.32    8    5    9  31.3 -99.9 1031.0 -9.9 -9.999 -99.9 -99.99 -9.99
2018/01/16 10:36 EST    1.61   2.25    8  357    9  31.3 -99.9 1031.0 -9.9 -9.999 -99.9 -99.99 -9.99
2018/01/16 10:42 EST    1.54   2.16    6  350    9  31.3 -99.9 1030.9 -9.9 -9.999 -99.9 -99.99 -9.99
2018/01/16 10:48 EST    1.47   2.11    8  354   10  31.3 -99.9 1030.9 -9.9 -9.999 -99.9 -99.99 -9.99
2018/01/16 10:54 EST    1.40   2.04    9  327   11  31.5 -99.9 1030.8 -9.9 -9.999 -99.9 -99.99 -9.99
2018/01/16 11:00 EST    1.33   1.96    8  323   11  31.3 -99.9 1030.6 -9.9 -9.999 -99.9 -99.99 -9.99
2018/01/16 11:06 EST    1.25   1.88    8  324   10  31.6 -99.9 1030.6 -9.9 -9.999 -99.9 -99.99 -9.99
2018/01/16 11:12 EST    1.18   1.83    8  321   10  31.5 -99.9 1030.4 -9.9 -9.999 -99.9 -99.99 -9.99
2018/01/16 11:18 EST    1.11   1.74    8  335   10  31.6 -99.9 1030.4 -9.9 -9.999 -99.9 -99.99 -9.99
2018/01/16 11:24 EST    1.04   1.65    8  326   10  31.6 -99.9 1030.5 -9.9 -9.999 -99.9 -99.99 -9.99
2018/01/16 11:30 EST    0.97   1.59    8  314   11  31.6 -99.9 1030.5 -9.9 -9.999 -99.9 -99.99 -9.99
2018/01/16 11:36 EST    0.90   1.49    8  327    9  31.6 -99.9 1030.5 -9.9 -9.999 -99.9 -99.99 -9.99
2018/01/16 11:42 EST    0.83   1.44    7  314    8  31.5 -99.9 1030.3 -9.9 -9.999 -99.9 -99.99 -9.99
2018/01/16 11:48 EST    0.76   1.36    6  317    9  31.5 -99.9 1030.3 -9.9 -9.999 -99.9 -99.99 -9.99
2018/01/16 11:54 EST    0.69   1.31    7  316    9  31.3 -99.9 1030.1 -9.9 -9.999 -99.9 -99.99 -9.99
2018/01/16 12:00 EST    0.63   1.23    7  318    9  31.5 -99.9 1029.9 -9.9 -9.999 -99.9 -99.99 -9.99
2018/01/16 12:06 EST    0.57   1.14    9  333   10  31.5 -99.9 1029.5 -9.9 -9.999 -99.9 -99.99 -9.99
2018/01/16 12:12 EST    0.51   1.09   10  325   12  31.5 -99.9 1029.5 -9.9 -9.999 -99.9 -99.99 -9.99
2018/01/16 12:18 EST    0.45   1.05    9  325   10  31.3 -99.9 1029.3 -9.9 -9.999 -99.9 -99.99 -9.99
2018/01/16 12:24 EST    0.40   1.00    8  319   11  31.3 -99.9 1029.2 -9.9 -9.999 -99.9 -99.99 -9.99
2018/01/16 12:30 EST    0.35   0.97    7  322   10  31.1 -99.9 1029.1 -9.9 -9.999 -99.9 -99.99 -9.99
2018/01/16 12:36 EST    0.30   0.91    9  325   10  31.3 -99.9 1029.0 -9.9 -9.999 -99.9 -99.99 -9.99
2018/01/16 12:42 EST    0.25   0.86   11  325   12  30.9 -99.9 1028.9 -9.9 -9.999 -99.9 -99.99 -9.99
2018/01/16 12:48 EST    0.21   0.84   10  327   12  30.7 -99.9 1028.8 -9.9 -9.999 -99.9 -99.99 -9.99
2018/01/16 12:54 EST    0.16   0.74 -999 -999 -999 -99.9 -99.9 -999.9 -9.9 -9.999 -99.9 -99.99 -9.99
2018/01/16 13:00 EST    0.13   0.72   11  325   13  30.4 -99.9 1028.6 -9.9 -9.999 -99.9 -99.99 -9.99
2018/01/16 13:06 EST    0.09   0.70   10  320   12  30.4 -99.9 1028.5 -9.9 -9.999 -99.9 -99.99 -9.99
2018/01/16 13:12 EST    0.06   0.66   10  326   12  30.4 -99.9 1028.5 -9.9 -9.999 -99.9 -99.99 -9.99
2018/01/16 13:18 EST    0.03   0.64   11  324   12  30.2 -99.9 1028.4 -9.9 -9.999 -99.9 -99.99 -9.99
2018/01/16 13:24 EST    0.00   0.62   11  320   12  30.4 -99.9 1028.3 -9.9 -9.999 -99.9 -99.99 -9.99
2018/01/16 13:30 EST   -0.02   0.62    9  318   11  30.4 -99.9 1028.3 -9.9 -9.999 -99.9 -99.99 -9.99
2018/01/16 13:36 EST   -0.04   0.60    9  325   11  30.6 -99.9 1028.3 -9.9 -9.999 -99.9 -99.99 -9.99
2018/01/16 13:42 EST   -0.05   0.55    9  319   11  30.7 -99.9 1028.2 -9.9 -9.999 -99.9 -99.99 -9.99
2018/01/16 13:48 EST   -0.07   0.55    8  344   11  30.4 -99.9 1028.1 -9.9 -9.999 -99.9 -99.99 -9.99
2018/01/16 13:54 EST   -0.08   0.53    9  322   11  30.2 -99.9 1028.1 -9.9 -9.999 -99.9 -99.99 -9.99
2018/01/16 14:00 EST   -0.08   0.53    9  329   11  30.2 -99.9 1028.0 -9.9 -9.999 -99.9 -99.99 -9.99
2018/01/16 14:06 EST   -0.08   0.50    8  337   10  30.6 -99.9 1028.0 -9.9 -9.999 -99.9 -99.99 -9.99
2018/01/16 14:12 EST   -0.08   0.50    7  323    8  30.7 -99.9 1027.8 -9.9 -9.999 -99.9 -99.99 -9.99
2018/01/16 14:18 EST   -0.08   0.51    6  336    9  30.9 -99.9 1027.7 -9.9 -9.999 -99.9 -99.99 -9.99
2018/01/16 14:24 EST   -0.07   0.54    8  355    9  31.1 -99.9 1027.7 -9.9 -9.999 -99.9 -99.99 -9.99
2018/01/16 14:30 EST   -0.06   0.53    8  352    9  31.3 -99.9 1027.6 -9.9 -9.999 -99.9 -99.99 -9.99
2018/01/16 14:36 EST   -0.05   0.53    8    3    9  31.5 -99.9 1027.6 -9.9 -9.999 -99.9 -99.99 -9.99
2018/01/16 14:42 EST   -0.03   0.57    7    5   10  31.3 -99.9 1027.6 -9.9 -9.999 -99.9 -99.99 -9.99
2018/01/16 14:48 EST   -0.01   0.56    7   10    8  31.5 -99.9 1027.6 -9.9 -9.999 -99.9 -99.99 -9.99
2018/01/16 14:54 EST    0.01   0.62    8  358    9  31.6 -99.9 1027.4 -9.9 -9.999 -99.9 -99.99 -9.99
2018/01/16 15:00 EST    0.04   0.63    8  352    9  31.6 -99.9 1027.5 -9.9 -9.999 -99.9 -99.99 -9.99
2018/01/16 15:06 EST    0.07   0.68    7  356    8  31.8 -99.9 1027.4 -9.9 -9.999 -99.9 -99.99 -9.99
2018/01/16 15:12 EST    0.10   0.68    5    5    8  31.6 -99.9 1027.4 -9.9 -9.999 -99.9 -99.99 -9.99
2018/01/16 15:18 EST    0.13   0.74    5    5    7  31.6 -99.9 1027.3 -9.9 -9.999 -99.9 -99.99 -9.99
2018/01/16 15:24 EST    0.17   0.82    6  359    7  31.6 -99.9 1027.3 -9.9 -9.999 -99.9 -99.99 -9.99
2018/01/16 15:30 EST    0.21   0.88    6  360    7  31.6 -99.9 1027.2 -9.9 -9.999 -99.9 -99.99 -9.99
2018/01/16 15:36 EST    0.25   0.92    5    0    7  31.8 -99.9 1027.2 -9.9 -9.999 -99.9 -99.99 -9.99
2018/01/16 15:42 EST    0.29   0.97    6    4    7  31.6 -99.9 1027.1 -9.9 -9.999 -99.9 -99.99 -9.99
2018/01/16 15:48 EST    0.34   1.03    5  359    7  31.8 -99.9 1027.1 -9.9 -9.999 -99.9 -99.99 -9.99
2018/01/16 15:54 EST    0.39   1.08    4    0    5  31.8 -99.9 1027.0 -9.9 -9.999 -99.9 -99.99 -9.99
2018/01/16 16:00 EST    0.44   1.14    4  343    4  31.8 -99.9 1027.0 -9.9 -9.999 -99.9 -99.99 -9.99
2018/01/16 16:06 EST    0.49   1.20    3  338    4  31.8 -99.9 1027.1 -9.9 -9.999 -99.9 -99.99 -9.99
2018/01/16 16:12 EST    0.54   1.22    3  326    4  31.8 -99.9 1027.0 -9.9 -9.999 -99.9 -99.99 -9.99
2018/01/16 16:18 EST    0.60   1.30    3  325    4  31.8 -99.9 1027.0 -9.9 -9.999 -99.9 -99.99 -9.99
2018/01/16 16:24 EST    0.66   1.34    4  338    4  31.6 -99.9 1027.0 -9.9 -9.999 -99.9 -99.99 -9.99
2018/01/16 16:30 EST    0.71   1.40    4  337    4  31.8 -99.9 1026.9 -9.9 -9.999 -99.9 -99.99 -9.99
2018/01/16 16:36 EST    0.77   1.45    4  333    5  31.8 -99.9 1026.9 -9.9 -9.999 -99.9 -99.99 -9.99
2018/01/16 16:42 EST    0.83   1.49    4  344    4  31.8 -99.9 1026.8 -9.9 -9.999 -99.9 -99.99 -9.99
2018/01/16 16:48 EST    0.89   1.55    2    6    4  31.8 -99.9 1026.7 -9.9 -9.999 -99.9 -99.99 -9.99
2018/01/16 16:54 EST    0.95   1.63    1    5    2  31.8 -99.9 1026.6 -9.9 -9.999 -99.9 -99.99 -9.99
2018/01/16 17:00 EST    1.02   1.68    2  321    2  31.8 -99.9 1026.7 -9.9 -9.999 -99.9 -99.99 -9.99
2018/01/16 17:06 EST    1.08   1.74    1  341    2  31.6 -99.9 1026.7 -9.9 -9.999 -99.9 -99.99 -9.99
2018/01/16 17:12 EST    1.14   1.81    1  331    2  31.6 -99.9 1026.7 -9.9 -9.999 -99.9 -99.99 -9.99
2018/01/16 17:18 EST    1.20   1.88    1  322    2  31.6 -99.9 1026.7 -9.9 -9.999 -99.9 -99.99 -9.99
2018/01/16 17:24 EST    1.26   1.94    2  324    2  31.5 -99.9 1026.7 -9.9 -9.999 -99.9 -99.99 -9.99
2018/01/16 17:30 EST    1.32   2.04    2  324    3  31.5 -99.9 1026.8 -9.9 -9.999 -99.9 -99.99 -9.99
2018/01/16 17:36 EST    1.38   2.06    3  324    4  31.5 -99.9 1026.9 -9.9 -9.999 -99.9 -99.99 -9.99
2018/01/16 17:42 EST    1.44   2.12    3  323    4  31.3 -99.9 1026.9 -9.9 -9.999 -99.9 -99.99 -9.99
2018/01/16 17:48 EST    1.49   2.18    4  310    4  31.3 -99.9 1026.8 -9.9 -9.999 -99.9 -99.99 -9.99
2018/01/16 17:54 EST    1.55   2.23    4  298    4  31.3 -99.9 1026.9 -9.9 -9.999 -99.9 -99.99 -9.99
2018/01/16 18:00 EST    1.60   2.26    3  310    4  31.3 -99.9 1027.0 -9.9 -9.999 -99.9 -99.99 -9.99
2018/01/16 18:06 EST    1.66   2.33    3  298    5  31.1 -99.9 1027.0 -9.9 -9.999 -99.9 -99.99 -9.99
2018/01/16 18:12 EST    1.71   2.36    3  293    4  31.1 -99.9 1027.1 -9.9 -9.999 -99.9 -99.99 -9.99
2018/01/16 18:18 EST    1.75   2.43    4  291    4  31.1 -99.9 1027.2 -9.9 -9.999 -99.9 -99.99 -9.99
2018/01/16 18:24 EST    1.80   2.47    4  291    4  31.1 -99.9 1027.3 -9.9 -9.999 -99.9 -99.99 -9.99
2018/01/16 18:30 EST    1.84   2.51    3  286    4  31.1 -99.9 1027.3 -9.9 -9.999 -99.9 -99.99 -9.99
2018/01/16 18:36 EST    1.88   2.56    2  285    3  31.1 -99.9 1027.3 -9.9 -9.999 -99.9 -99.99 -9.99
2018/01/16 18:42 EST    1.92   2.59    2  299    3  31.3 -99.9 1027.4 -9.9 -9.999 -99.9 -99.99 -9.99
2018/01/16 18:48 EST    1.95   2.64    2  304    3  31.3 -99.9 1027.4 -9.9 -9.999 -99.9 -99.99 -9.99
2018/01/16 18:54 EST    1.98   2.71    0  285    2  31.3 -99.9 1027.3 -9.9 -9.999 -99.9 -99.99 -9.99
2018/01/16 19:00 EST    2.01   2.75    2  150    2  31.3 -99.9 1027.1 -9.9 -9.999 -99.9 -99.99 -9.99
2018/01/16 19:06 EST    2.04   2.77    2  179    3  31.3 -99.9 1027.0 -9.9 -9.999 -99.9 -99.99 -9.99
2018/01/16 19:12 EST    2.06   2.79    1  216    2  31.3 -99.9 1027.0 -9.9 -9.999 -99.9 -99.99 -9.99
2018/01/16 19:18 EST    2.08   2.83    2  190    2  31.3 -99.9 1026.9 -9.9 -9.999 -99.9 -99.99 -9.99
2018/01/16 19:24 EST    2.10   2.84    2  203    2  31.3 -99.9 1026.8 -9.9 -9.999 -99.9 -99.99 -9.99
2018/01/16 19:30 EST    2.11   2.81    1  203    2  31.5 -99.9 1026.8 -9.9 -9.999 -99.9 -99.99 -9.99
2018/01/16 19:36 EST    2.13   2.85    1  228    2  31.5 -99.9 1026.7 -9.9 -9.999 -99.9 -99.99 -9.99
2018/01/16 19:42 EST    2.13   2.85    2  259    2  31.5 -99.9 1026.7 -9.9 -9.999 -99.9 -99.99 -9.99
2018/01/16 19:48 EST    2.14   2.88    2  253    3  31.6 -99.9 1026.7 -9.9 -9.999 -99.9 -99.99 -9.99
2018/01/16 19:54 EST    2.14   2.88    1  226    3  31.6 -99.9 1026.6 -9.9 -9.999 -99.9 -99.99 -9.99
2018/01/16 20:00 EST    2.14   2.85    1  222    2  31.6 -99.9 1026.6 -9.9 -9.999 -99.9 -99.99 -9.99
2018/01/16 20:06 EST    2.14   2.85    1  236    2  31.8 -99.9 1026.6 -9.9 -9.999 -99.9 -99.99 -9.99
2018/01/16 20:12 EST    2.14   2.84    3  242    3  31.8 -99.9 1026.5 -9.9 -9.999 -99.9 -99.99 -9.99
2018/01/16 20:18 EST    2.13   2.85    4  250    4  32.0 -99.9 1026.5 -9.9 -9.999 -99.9 -99.99 -9.99
2018/01/16 20:24 EST    2.12   2.85    4  261    5  32.4 -99.9 1026.4 -9.9 -9.999 -99.9 -99.99 -9.99
2018/01/16 20:30 EST    2.11   2.83    5  262    5  32.4 -99.9 1026.4 -9.9 -9.999 -99.9 -99.99 -9.99
2018/01/16 20:36 EST    2.10   2.79    5  257    6  32.7 -99.9 1026.5 -9.9 -9.999 -99.9 -99.99 -9.99
2018/01/16 20:42 EST    2.08   2.78    5  262    6  32.9 -99.9 1026.5 -9.9 -9.999 -99.9 -99.99 -9.99
2018/01/16 20:48 EST    2.06   2.78    5  261    6  32.9 -99.9 1026.4 -9.9 -9.999 -99.9 -99.99 -9.99
2018/01/16 20:54 EST    2.05   2.72    5  262    5  33.1 -99.9 1026.3 -9.9 -9.999 -99.9 -99.99 -9.99
2018/01/16 21:00 EST    2.02   2.74    6  269    6  33.3 -99.9 1026.4 -9.9 -9.999 -99.9 -99.99 -9.99
2018/01/16 21:06 EST    2.00   2.72    5  271    6  33.4 -99.9 1026.4 -9.9 -9.999 -99.9 -99.99 -9.99
2018/01/16 21:12 EST    1.97   2.67    6  265    7  33.6 -99.9 1026.5 -9.9 -9.999 -99.9 -99.99 -9.99
2018/01/16 21:18 EST    1.94   2.64    5  262    7  33.8 -99.9 1026.4 -9.9 -9.999 -99.9 -99.99 -9.99
2018/01/16 21:24 EST    1.91   2.59    5  264    6  33.8 -99.9 1026.3 -9.9 -9.999 -99.9 -99.99 -9.99
2018/01/16 21:30 EST    1.88   2.56    6  273    6  34.0 -99.9 1026.3 -9.9 -9.999 -99.9 -99.99 -9.99
2018/01/16 21:36 EST    1.84   2.53    6  278    7  34.0 -99.9 1026.4 -9.9 -9.999 -99.9 -99.99 -9.99
2018/01/16 21:42 EST    1.81   2.52    6  285    7  34.0 -99.9 1026.4 -9.9 -9.999 -99.9 -99.99 -9.99
2018/01/16 21:48 EST    1.77   2.47    6  286    7  34.2 -99.9 1026.4 -9.9 -9.999 -99.9 -99.99 -9.99
2018/01/16 21:54 EST    1.72   2.43    6  281    7  34.2 -99.9 1026.4 -9.9 -9.999 -99.9 -99.99 -9.99
2018/01/16 22:00 EST    1.68   2.39    5  278    6  34.2 -99.9 1026.3 -9.9 -9.999 -99.9 -99.99 -9.99
2018/01/16 22:06 EST    1.63   2.31    4  260    5  34.3 -99.9 1026.1 -9.9 -9.999 -99.9 -99.99 -9.99
2018/01/16 22:12 EST    1.58   2.30    3  247    4  34.3 -99.9 1025.9 -9.9 -9.999 -99.9 -99.99 -9.99
2018/01/16 22:18 EST    1.53   2.24    4  258    4  34.5 -99.9 1025.9 -9.9 -9.999 -99.9 -99.99 -9.99
2018/01/16 22:24 EST    1.48   2.21    3  252    4  34.5 -99.9 1025.8 -9.9 -9.999 -99.9 -99.99 -9.99
2018/01/16 22:30 EST    1.42   2.15    4  252    4  34.7 -99.9 1025.9 -9.9 -9.999 -99.9 -99.99 -9.99
2018/01/16 22:36 EST    1.37   2.09    4  246    5  34.7 -99.9 1026.0 -9.9 -9.999 -99.9 -99.99 -9.99
2018/01/16 22:42 EST    1.31   2.04    4  254    5  34.9 -99.9 1025.9 -9.9 -9.999 -99.9 -99.99 -9.99
2018/01/16 22:48 EST    1.25   1.97    4  266    4  34.9 -99.9 1025.8 -9.9 -9.999 -99.9 -99.99 -9.99
2018/01/16 22:54 EST    1.19   1.93    4  261    5  34.9 -99.9 1025.8 -9.9 -9.999 -99.9 -99.99 -9.99
2018/01/16 23:00 EST    1.13   1.84    5  269    5  34.9 -99.9 1025.9 -9.9 -9.999 -99.9 -99.99 -9.99
2018/01/16 23:06 EST    1.07   1.80    4  271    6  34.9 -99.9 1025.8 -9.9 -9.999 -99.9 -99.99 -9.99
2018/01/16 23:12 EST    1.01   1.72    4  268    5  34.9 -99.9 1025.8 -9.9 -9.999 -99.9 -99.99 -9.99
2018/01/16 23:18 EST    0.94   1.65    5  275    5  34.9 -99.9 1025.7 -9.9 -9.999 -99.9 -99.99 -9.99
2018/01/16 23:24 EST    0.88   1.57    5  281    6  34.9 -99.9 1025.8 -9.9 -9.999 -99.9 -99.99 -9.99
2018/01/16 23:30 EST    0.82   1.51    6  287    6  34.7 -99.9 1025.7 -9.9 -9.999 -99.9 -99.99 -9.99
2018/01/16 23:36 EST    0.76   1.46    6  293    6  34.7 -99.9 1025.6 -9.9 -9.999 -99.9 -99.99 -9.99
2018/01/16 23:42 EST    0.70   1.42    5  291    6  34.7 -99.9 1025.4 -9.9 -9.999 -99.9 -99.99 -9.99
2018/01/16 23:48 EST    0.64   1.34    5  292    5  34.7 -99.9 1025.3 -9.9 -9.999 -99.9 -99.99 -9.99
2018/01/16 23:54 EST    0.58   1.31    4  292    5  34.7 -99.9 1025.2 -9.9 -9.999 -99.9 -99.99 -9.99
2018/01/17 00:00 EST    0.52   1.23    4  280    5  34.7 -99.9 1025.2 -9.9 -9.999 -99.9 -99.99 -9.99
2018/01/17 00:06 EST    0.47   1.18    4  277    4  34.7 -99.9 1025.2 -9.9 -9.999 -99.9 -99.99 -9.99
2018/01/17 00:12 EST    0.41   1.15    4  282    5  34.7 -99.9 1025.2 -9.9 -9.999 -99.9 -99.99 -9.99
2018/01/17 00:18 EST    0.36   1.09    4  286    5  34.7 -99.9 1025.1 -9.9 -9.999 -99.9 -99.99 -9.99
2018/01/17 00:24 EST    0.31   1.04    3  286    4  34.7 -99.9 1025.0 -9.9 -9.999 -99.9 -99.99 -9.99
2018/01/17 00:30 EST    0.26   1.02    3  289    3  34.5 -99.9 1024.8 -9.9 -9.999 -99.9 -99.99 -9.99
2018/01/17 00:36 EST    0.22   0.98    3  295    4  34.5 -99.9 1024.8 -9.9 -9.999 -99.9 -99.99 -9.99
2018/01/17 00:42 EST    0.18   0.95    4  291    4  34.5 -99.9 1024.8 -9.9 -9.999 -99.9 -99.99 -9.99
2018/01/17 00:48 EST    0.14   0.90    4  294    5  34.5 -99.9 1024.7 -9.9 -9.999 -99.9 -99.99 -9.99
2018/01/17 00:54 EST    0.10   0.86    5  299    5  34.5 -99.9 1024.6 -9.9 -9.999 -99.9 -99.99 -9.99
2018/01/17 01:00 EST    0.07   0.84    4  298    5  34.5 -99.9 1024.4 -9.9 -9.999 -99.9 -99.99 -9.99
2018/01/17 01:06 EST    0.04   0.81    4  302    4  34.5 -99.9 1024.3 -9.9 -9.999 -99.9 -99.99 -9.99
2018/01/17 01:12 EST    0.01   0.76    3  307    4  34.3 -99.9 1024.2 -9.9 -9.999 -99.9 -99.99 -9.99
2018/01/17 01:18 EST   -0.01   0.72    3  314    3  34.3 -99.9 1024.3 -9.9 -9.999 -99.9 -99.99 -9.99
2018/01/17 01:24 EST   -0.04   0.71    3  317    3  34.3 -99.9 1024.2 -9.9 -9.999 -99.9 -99.99 -9.99
2018/01/17 01:30 EST   -0.05   0.69    3  322    3  34.2 -99.9 1024.1 -9.9 -9.999 -99.9 -99.99 -9.99
2018/01/17 01:36 EST   -0.07   0.67    3  327    3  34.0 -99.9 1024.2 -9.9 -9.999 -99.9 -99.99 -9.99
2018/01/17 01:42 EST   -0.08   0.66    3  329    3  34.0 -99.9 1024.3 -9.9 -9.999 -99.9 -99.99 -9.99
2018/01/17 01:48 EST   -0.09   0.63    3  321    4  34.0 -99.9 1024.3 -9.9 -9.999 -99.9 -99.99 -9.99
2018/01/17 01:54 EST   -0.09   0.64    4  326    4  33.8 -99.9 1024.2 -9.9 -9.999 -99.9 -99.99 -9.99
2018/01/17 02:00 EST   -0.09   0.62    5  321    5  33.8 -99.9 1024.3 -9.9 -9.999 -99.9 -99.99 -9.99
2018/01/17 02:06 EST   -0.09   0.63    6  327    6  33.8 -99.9 1024.3 -9.9 -9.999 -99.9 -99.99 -9.99
2018/01/17 02:12 EST   -0.09   0.67    5  325    6  34.0 -99.9 1024.3 -9.9 -9.999 -99.9 -99.99 -9.99
2018/01/17 02:18 EST   -0.08   0.71    5  328    5  34.0 -99.9 1024.4 -9.9 -9.999 -99.9 -99.99 -9.99
2018/01/17 02:24 EST   -0.07   0.73    5  328    5  33.8 -99.9 1024.5 -9.9 -9.999 -99.9 -99.99 -9.99
2018/01/17 02:30 EST   -0.05   0.75    5  351    5  33.6 -99.9 1024.6 -9.9 -9.999 -99.9 -99.99 -9.99
2018/01/17 02:36 EST   -0.03   0.79    4    4    5  33.6 -99.9 1024.6 -9.9 -9.999 -99.9 -99.99 -9.99
2018/01/17 02:42 EST   -0.01   0.79    4  343    5  33.6 -99.9 1024.6 -9.9 -9.999 -99.9 -99.99 -9.99
2018/01/17 02:48 EST    0.01   0.83    3  356    4  33.6 -99.9 1024.6 -9.9 -9.999 -99.9 -99.99 -9.99
2018/01/17 02:54 EST    0.04 -99.99 -999 -999 -999 -99.9 -99.9 -999.9 -9.9 -9.999 -99.9 -99.99 -9.99
2018/01/17 03:00 EST    0.07 -99.99 -999 -999 -999 -99.9 -99.9 -999.9 -9.9 -9.999 -99.9 -99.99 -9.99
2018/01/17 03:06 EST    0.11 -99.99 -999 -999 -999 -99.9 -99.9 -999.9 -9.9 -9.999 -99.9 -99.99 -9.99
2018/01/17 03:12 EST    0.14 -99.99 -999 -999 -999 -99.9 -99.9 -999.9 -9.9 -9.999 -99.9 -99.99 -9.99
2018/01/17 03:18 EST    0.18 -99.99 -999 -999 -999 -99.9 -99.9 -999.9 -9.9 -9.999 -99.9 -99.99 -9.99
2018/01/17 03:24 EST    0.23 -99.99 -999 -999 -999 -99.9 -99.9 -999.9 -9.9 -9.999 -99.9 -99.99 -9.99
2018/01/17 03:30 EST    0.27 -99.99 -999 -999 -999 -99.9 -99.9 -999.9 -9.9 -9.999 -99.9 -99.99 -9.99
2018/01/17 03:36 EST    0.32   1.16    2   10    3  33.6 -99.9 1024.6 -9.9 -9.999 -99.9 -99.99 -9.99
2018/01/17 03:42 EST    0.37   1.21    2   11    2  33.6 -99.9 1024.7 -9.9 -9.999 -99.9 -99.99 -9.99
2018/01/17 03:48 EST    0.42   1.27    2    6    3  33.6 -99.9 1024.5 -9.9 -9.999 -99.9 -99.99 -9.99
2018/01/17 03:54 EST    0.48   1.34    3    8    3  33.8 -99.9 1024.4 -9.9 -9.999 -99.9 -99.99 -9.99
2018/01/17 04:00 EST    0.54   1.39    3   15    4  33.8 -99.9 1024.4 -9.9 -9.999 -99.9 -99.99 -9.99
2018/01/17 04:06 EST    0.60   1.47    3   21    4  34.0 -99.9 1024.2 -9.9 -9.999 -99.9 -99.99 -9.99
2018/01/17 04:12 EST    0.66   1.52    3   23    3  33.8 -99.9 1024.3 -9.9 -9.999 -99.9 -99.99 -9.99
2018/01/17 04:18 EST    0.72   1.60    3   33    3  34.0 -99.9 1024.3 -9.9 -9.999 -99.9 -99.99 -9.99
2018/01/17 04:24 EST    0.79   1.68    2   45    3  34.0 -99.9 1024.4 -9.9 -9.999 -99.9 -99.99 -9.99
2018/01/17 04:30 EST    0.85   1.74    2   51    2  33.8 -99.9 1024.3 -9.9 -9.999 -99.9 -99.99 -9.99
2018/01/17 04:36 EST    0.92   1.83    2   58    2  33.8 -99.9 1024.3 -9.9 -9.999 -99.9 -99.99 -9.99
2018/01/17 04:42 EST    0.99   1.89    2   54    2  33.6 -99.9 1024.3 -9.9 -9.999 -99.9 -99.99 -9.99
2018/01/17 04:48 EST    1.06   1.97    3   42    3  33.6 -99.9 1024.3 -9.9 -9.999 -99.9 -99.99 -9.99
2018/01/17 04:54 EST    1.13   2.04    3   25    4  33.8 -99.9 1024.3 -9.9 -9.999 -99.9 -99.99 -9.99
2018/01/17 05:00 EST    1.20   2.14    5    5    5  33.8 -99.9 1024.1 -9.9 -9.999 -99.9 -99.99 -9.99
2018/01/17 05:06 EST    1.27   2.18    6    1    6  33.8 -99.9 1024.0 -9.9 -9.999 -99.9 -99.99 -9.99
2018/01/17 05:12 EST    1.35   2.25    5  353    6  33.8 -99.9 1024.2 -9.9 -9.999 -99.9 -99.99 -9.99
2018/01/17 05:18 EST    1.42   2.35    6  355    7  33.8 -99.9 1024.2 -9.9 -9.999 -99.9 -99.99 -9.99
2018/01/17 05:24 EST    1.49   2.37    8    7    9  34.0 -99.9 1024.4 -9.9 -9.999 -99.9 -99.99 -9.99
2018/01/17 05:30 EST    1.56   2.40    7    7    9  34.0 -99.9 1024.5 -9.9 -9.999 -99.9 -99.99 -9.99
2018/01/17 05:36 EST    1.63   2.43    7    7    8  34.0 -99.9 1024.5 -9.9 -9.999 -99.9 -99.99 -9.99
2018/01/17 05:42 EST    1.70   2.48    7    8    8  34.0 -99.9 1024.6 -9.9 -9.999 -99.9 -99.99 -9.99
2018/01/17 05:48 EST    1.77   2.53    7    7    7  34.0 -99.9 1024.6 -9.9 -9.999 -99.9 -99.99 -9.99
2018/01/17 05:54 EST    1.84   2.57    7    5    8  34.0 -99.9 1024.6 -9.9 -9.999 -99.9 -99.99 -9.99
2018/01/17 06:00 EST    1.91   2.67    8    6    9  34.0 -99.9 1024.5 -9.9 -9.999 -99.9 -99.99 -9.99
2018/01/17 06:06 EST    1.97   2.72    9    7   10  34.0 -99.9 1024.5 -9.9 -9.999 -99.9 -99.99 -9.99
2018/01/17 06:12 EST    2.04   2.77    9    5   11  34.0 -99.9 1024.4 -9.9 -9.999 -99.9 -99.99 -9.99
2018/01/17 06:18 EST    2.10   2.84   10    7   11  34.2 -99.9 1024.4 -9.9 -9.999 -99.9 -99.99 -9.99
2018/01/17 06:24 EST    2.16   2.88   11    8   12  34.2 -99.9 1024.5 -9.9 -9.999 -99.9 -99.99 -9.99
2018/01/17 06:30 EST    2.22   2.92   12   12   14  34.3 -99.9 1024.4 -9.9 -9.999 -99.9 -99.99 -9.99
2018/01/17 06:36 EST    2.27   2.98   12   12   13  34.3 -99.9 1024.6 -9.9 -9.999 -99.9 -99.99 -9.99
2018/01/17 06:42 EST    2.32   3.03   11   10   13  34.5 -99.9 1024.6 -9.9 -9.999 -99.9 -99.99 -9.99
2018/01/17 06:48 EST    2.37   3.10   12   15   13  34.5 -99.9 1024.6 -9.9 -9.999 -99.9 -99.99 -9.99
2018/01/17 06:54 EST    2.42   3.14 -999 -999 -999 -99.9 -99.9 -999.9 -9.9 -9.999 -99.9 -99.99 -9.99
2018/01/17 07:00 EST    2.46   3.20   11   19   12  34.7 -99.9 1024.7 -9.9 -9.999 -99.9 -99.99 -9.99
2018/01/17 07:06 EST    2.50   3.23   12   18   13  34.7 -99.9 1024.6 -9.9 -9.999 -99.9 -99.99 -9.99
2018/01/17 07:12 EST    2.54   3.30   12   20   14  34.7 -99.9 1024.6 -9.9 -9.999 -99.9 -99.99 -9.99
2018/01/17 07:18 EST    2.57   3.34   11   25   13  34.9 -99.9 1024.7 -9.9 -9.999 -99.9 -99.99 -9.99
2018/01/17 07:24 EST    2.60   3.37   11   25   13  34.7 -99.9 1024.8 -9.9 -9.999 -99.9 -99.99 -9.99
2018/01/17 07:30 EST    2.63   3.43   13   18   15  34.7 -99.9 1024.9 -9.9 -9.999 -99.9 -99.99 -9.99
2018/01/17 07:36 EST    2.65   3.44   17   16   18  34.7 -99.9 1024.8 -9.9 -9.999 -99.9 -99.99 -9.99
2018/01/17 07:42 EST    2.67   3.49   15   17   19  34.9 -99.9 1024.9 -9.9 -9.999 -99.9 -99.99 -9.99
2018/01/17 07:48 EST    2.69   3.51   15   18   18  34.9 -99.9 1024.7 -9.9 -9.999 -99.9 -99.99 -9.99
2018/01/17 07:54 EST    2.70   3.57   16   16   18  34.9 -99.9 1024.6 -9.9 -9.999 -99.9 -99.99 -9.99
2018/01/17 08:00 EST    2.71   3.60   15   11   18  34.7 -99.9 1024.6 -9.9 -9.999 -99.9 -99.99 -9.99
2018/01/17 08:06 EST    2.72   3.58   16   13   18  34.5 -99.9 1024.6 -9.9 -9.999 -99.9 -99.99 -9.99
2018/01/17 08:12 EST    2.72   3.61   17   17   19  34.5 -99.9 1024.7 -9.9 -9.999 -99.9 -99.99 -9.99
2018/01/17 08:18 EST    2.73   3.61   17   17   19  34.5 -99.9 1024.6 -9.9 -9.999 -99.9 -99.99 -9.99
2018/01/17 08:24 EST    2.72   3.62   19   16   21  34.3 -99.9 1024.5 -9.9 -9.999 -99.9 -99.99 -9.99
2018/01/17 08:30 EST    2.72   3.64   18   14   21  34.3 -99.9 1024.7 -9.9 -9.999 -99.9 -99.99 -9.99
2018/01/17 08:36 EST    2.71   3.68   18   15   21  34.3 -99.9 1024.8 -9.9 -9.999 -99.9 -99.99 -9.99
2018/01/17 08:42 EST    2.70   3.67   16   10   21  34.5 -99.9 1025.0 -9.9 -9.999 -99.9 -99.99 -9.99
2018/01/17 08:48 EST    2.69   3.68   18    6   20  34.3 -99.9 1025.3 -9.9 -9.999 -99.9 -99.99 -9.99
2018/01/17 08:54 EST    2.67   3.68   16    7   19  34.3 -99.9 1025.4 -9.9 -9.999 -99.9 -99.99 -9.99
2018/01/17 09:00 EST    2.65   3.70   17    6   20  34.2 -99.9 1025.4 -9.9 -9.999 -99.9 -99.99 -9.99
2018/01/17 09:06 EST    2.63   3.66   19    8   21  34.0 -99.9 1025.5 -9.9 -9.999 -99.9 -99.99 -9.99
2018/01/17 09:12 EST    2.61   3.67   16   12   21  34.2 -99.9 1025.6 -9.9 -9.999 -99.9 -99.99 -9.99
2018/01/17 09:18 EST    2.58   3.61   17    8   21  34.0 -99.9 1025.6 -9.9 -9.999 -99.9 -99.99 -9.99
2018/01/17 09:24 EST    2.55   3.55   19    8   22  33.8 -99.9 1025.7 -9.9 -9.999 -99.9 -99.99 -9.99
2018/01/17 09:30 EST    2.52   3.52   21   15   23  33.8 -99.9 1025.6 -9.9 -9.999 -99.9 -99.99 -9.99
2018/01/17 09:36 EST    2.49   3.46   18   14   22  33.8 -99.9 1025.6 -9.9 -9.999 -99.9 -99.99 -9.99
2018/01/17 09:42 EST    2.45   3.42   20   12   22  33.8 -99.9 1025.6 -9.9 -9.999 -99.9 -99.99 -9.99
2018/01/17 09:48 EST    2.41   3.41   20    8   22  33.6 -99.9 1025.5 -9.9 -9.999 -99.9 -99.99 -9.99
2018/01/17 09:54 EST    2.37   3.40   20    7   23  33.6 -99.9 1025.5 -9.9 -9.999 -99.9 -99.99 -9.99
2018/01/17 10:00 EST    2.33   3.37   21   21   25  33.6 -99.9 1025.5 -9.9 -9.999 -99.9 -99.99 -9.99
2018/01/17 10:06 EST    2.28   3.35   18   16   24  33.8 -99.9 1025.5 -9.9 -9.999 -99.9 -99.99 -9.99
2018/01/17 10:12 EST    2.23   3.30   20   17   24  33.6 -99.9 1025.4 -9.9 -9.999 -99.9 -99.99 -9.99
2018/01/17 10:18 EST    2.18   3.25   22   13   24  33.4 -99.9 1025.5 -9.9 -9.999 -99.9 -99.99 -9.99
2018/01/17 10:24 EST    2.13   3.18   22   13   25  33.4 -99.9 1025.5 -9.9 -9.999 -99.9 -99.99 -9.99
2018/01/17 10:30 EST    2.07   3.11   19   14   24  33.4 -99.9 1025.6 -9.9 -9.999 -99.9 -99.99 -9.99
2018/01/17 10:36 EST    2.01   3.03   20   20   23  33.3 -99.9 1025.5 -9.9 -9.999 -99.9 -99.99 -9.99
2018/01/17 10:42 EST    1.95   3.00   20   28   23  33.3 -99.9 1025.5 -9.9 -9.999 -99.9 -99.99 -9.99
2018/01/17 10:48 EST    1.89   2.96   19   27   22  33.1 -99.9 1025.3 -9.9 -9.999 -99.9 -99.99 -9.99
2018/01/17 10:54 EST    1.82   2.89   19   19   23  33.3 -99.9 1025.3 -9.9 -9.999 -99.9 -99.99 -9.99
2018/01/17 11:00 EST    1.76   2.89   19   17   22  33.1 -99.9 1025.3 -9.9 -9.999 -99.9 -99.99 -9.99
2018/01/17 11:06 EST    1.69   2.80   20   16   23  32.9 -99.9 1025.2 -9.9 -9.999 -99.9 -99.99 -9.99
2018/01/17 11:12 EST    1.62   2.74   20   23   24  32.7 -99.9 1025.2 -9.9 -9.999 -99.9 -99.99 -9.99
2018/01/17 11:18 EST    1.55   2.66   20   29   23  32.5 -99.9 1025.4 -9.9 -9.999 -99.9 -99.99 -9.99
2018/01/17 11:24 EST    1.47   2.63   19   22   22  32.5 -99.9 1025.4 -9.9 -9.999 -99.9 -99.99 -9.99
2018/01/17 11:30 EST    1.40   2.58   20    8   24  32.2 -99.9 1025.3 -9.9 -9.999 -99.9 -99.99 -9.99
2018/01/17 11:36 EST    1.33   2.50   20    6   23  31.8 -99.9 1025.4 -9.9 -9.999 -99.9 -99.99 -9.99
2018/01/17 11:42 EST    1.25   2.26   21   13   24  31.6 -99.9 1025.2 -9.9 -9.999 -99.9 -99.99 -9.99
2018/01/17 11:48 EST    1.18   2.22   22    8   25  31.5 -99.9 1025.0 -9.9 -9.999 -99.9 -99.99 -9.99
2018/01/17 11:54 EST    1.10   2.25   21   11   24  31.5 -99.9 1024.8 -9.9 -9.999 -99.9 -99.99 -9.99
2018/01/17 12:00 EST    1.03   2.24   20    6   25  31.6 -99.9 1024.8 -9.9 -9.999 -99.9 -99.99 -9.99
2018/01/17 12:06 EST    0.96   2.08   22    9   25  31.5 -99.9 1024.6 -9.9 -9.999 -99.9 -99.99 -9.99
2018/01/17 12:12 EST    0.89   2.01   23    9   26  31.1 -99.9 1024.1 -9.9 -9.999 -99.9 -99.99 -9.99
2018/01/17 12:18 EST    0.82   1.95   21    6   25  31.5 -99.9 1024.3 -9.9 -9.999 -99.9 -99.99 -9.99
2018/01/17 12:24 EST    0.75   1.95   23    4   27  30.9 -99.9 1024.0 -9.9 -9.999 -99.9 -99.99 -9.99
2018/01/17 12:30 EST    0.68   1.88   23   11   26  30.9 -99.9 1023.8 -9.9 -9.999 -99.9 -99.99 -9.99
2018/01/17 12:36 EST    0.62   1.75   24    8   27  30.9 -99.9 1023.8 -9.9 -9.999 -99.9 -99.99 -9.99
2018/01/17 12:42 EST    0.55   1.80   23  360   27  30.7 -99.9 1023.9 -9.9 -9.999 -99.9 -99.99 -9.99
2018/01/17 12:48 EST    0.49   1.74   22    3   26  30.7 -99.9 1023.7 -9.9 -9.999 -99.9 -99.99 -9.99
2018/01/17 12:54 EST    0.43   1.68   21   10   25  30.7 -99.9 1023.7 -9.9 -9.999 -99.9 -99.99 -9.99
2018/01/17 13:00 EST    0.38   1.58   21    6   25  30.6 -99.9 1023.7 -9.9 -9.999 -99.9 -99.99 -9.99
2018/01/17 13:06 EST    0.32   1.59   22    5   26  30.2 -99.9 1023.7 -9.9 -9.999 -99.9 -99.99 -9.99
2018/01/17 13:12 EST    0.27   1.58   21    1   25  30.4 -99.9 1023.6 -9.9 -9.999 -99.9 -99.99 -9.99
2018/01/17 13:18 EST    0.22   1.66   24    4   26  30.2 -99.9 1023.4 -9.9 -9.999 -99.9 -99.99 -9.99
2018/01/17 13:24 EST    0.18   1.46   21    6   25  30.4 -99.9 1023.4 -9.9 -9.999 -99.9 -99.99 -9.99
2018/01/17 13:30 EST    0.14   1.42   22    5   25  29.8 -99.9 1023.3 -9.9 -9.999 -99.9 -99.99 -9.99
2018/01/17 13:36 EST    0.10   1.41   24  360   27  29.8 -99.9 1023.2 -9.9 -9.999 -99.9 -99.99 -9.99
2018/01/17 13:42 EST    0.06   1.34   23    4   25  29.5 -99.9 1023.0 -9.9 -9.999 -99.9 -99.99 -9.99
2018/01/17 13:48 EST    0.03   1.41   24    4   27  29.3 -99.9 1023.1 -9.9 -9.999 -99.9 -99.99 -9.99
2018/01/17 13:54 EST    0.00   1.48   24    6   28  29.3 -99.9 1022.8 -9.9 -9.999 -99.9 -99.99 -9.99
2018/01/17 14:00 EST   -0.03   1.33   24    4   30  29.3 -99.9 1022.9 -9.9 -9.999 -99.9 -99.99 -9.99
2018/01/17 14:06 EST   -0.05   1.31   23    3   27  29.1 -99.9 1022.7 -9.9 -9.999 -99.9 -99.99 -9.99
2018/01/17 14:12 EST   -0.07   1.25   22   10   25  29.3 -99.9 1023.0 -9.9 -9.999 -99.9 -99.99 -9.99
2018/01/17 14:18 EST   -0.09   1.11   21    2   24  28.6 -99.9 1022.9 -9.9 -9.999 -99.9 -99.99 -9.99
2018/01/17 14:24 EST   -0.10   1.07   25    6   28  28.6 -99.9 1022.5 -9.9 -9.999 -99.9 -99.99 -9.99
2018/01/17 14:30 EST   -0.11   1.09   22    2   26  28.6 -99.9 1022.9 -9.9 -9.999 -99.9 -99.99 -9.99
2018/01/17 14:36 EST   -0.11   1.06   21    5   25  28.6 -99.9 1022.6 -9.9 -9.999 -99.9 -99.99 -9.99
2018/01/17 14:42 EST   -0.12   1.02   23    6   26  28.2 -99.9 1022.7 -9.9 -9.999 -99.9 -99.99 -9.99
2018/01/17 14:48 EST   -0.12   1.17   23    5   25  28.4 -99.9 1022.6 -9.9 -9.999 -99.9 -99.99 -9.99
2018/01/17 14:54 EST   -0.11   1.15   22    6   26  28.2 -99.9 1022.7 -9.9 -9.999 -99.9 -99.99 -9.99
2018/01/17 15:00 EST   -0.11   1.24   21    5   25  28.0 -99.9 1022.8 -9.9 -9.999 -99.9 -99.99 -9.99
2018/01/17 15:06 EST   -0.10   1.13   22    9   26  27.1 -99.9 1022.7 -9.9 -9.999 -99.9 -99.99 -9.99
2018/01/17 15:12 EST   -0.08   1.16   22    8   24  27.1 -99.9 1022.6 -9.9 -9.999 -99.9 -99.99 -9.99
2018/01/17 15:18 EST   -0.06   1.18   21    2   24  27.3 -99.9 1022.7 -9.9 -9.999 -99.9 -99.99 -9.99
2018/01/17 15:24 EST   -0.04   1.09   22  359   24  27.0 -99.9 1022.5 -9.9 -9.999 -99.9 -99.99 -9.99
2018/01/17 15:30 EST   -0.02   1.10   24    6   27  26.6 -99.9 1022.1 -9.9 -9.999 -99.9 -99.99 -9.99
2018/01/17 15:36 EST    0.01   1.15   24    6   27  27.0 -99.9 1022.1 -9.9 -9.999 -99.9 -99.99 -9.99
2018/01/17 15:42 EST    0.03   1.32   23    4   28  26.6 -99.9 1022.2 -9.9 -9.999 -99.9 -99.99 -9.99
2018/01/17 15:48 EST    0.07   1.37   23    7   25  27.0 -99.9 1022.2 -9.9 -9.999 -99.9 -99.99 -9.99
2018/01/17 15:54 EST    0.10   1.34   23    8   26  26.6 -99.9 1022.2 -9.9 -9.999 -99.9 -99.99 -9.99
2018/01/17 16:00 EST    0.14   1.34   22    3   27  27.1 -99.9 1022.2 -9.9 -9.999 -99.9 -99.99 -9.99
2018/01/17 16:06 EST    0.18   1.36   21    2   24  27.3 -99.9 1022.2 -9.9 -9.999 -99.9 -99.99 -9.99
2018/01/17 16:12 EST    0.22   1.37   20    5   24  27.3 -99.9 1022.4 -9.9 -9.999 -99.9 -99.99 -9.99
2018/01/17 16:18 EST    0.27   1.42   20    4   23  27.1 -99.9 1022.6 -9.9 -9.999 -99.9 -99.99 -9.99
2018/01/17 16:24 EST    0.32   1.47   18    5   23  27.1 -99.9 1022.8 -9.9 -9.999 -99.9 -99.99 -9.99
2018/01/17 16:30 EST    0.37   1.50   19  359   21  27.0 -99.9 1023.0 -9.9 -9.999 -99.9 -99.99 -9.99
2018/01/17 16:36 EST    0.42   1.47   19  354   22  26.8 -99.9 1023.1 -9.9 -9.999 -99.9 -99.99 -9.99
2018/01/17 16:42 EST    0.47   1.52   17    6   21  27.1 -99.9 1023.1 -9.9 -9.999 -99.9 -99.99 -9.99
2018/01/17 16:48 EST    0.53   1.55   19   18   22  26.6 -99.9 1023.1 -9.9 -9.999 -99.9 -99.99 -9.99
2018/01/17 16:54 EST    0.58   1.69   20   18   23  26.2 -99.9 1023.1 -9.9 -9.999 -99.9 -99.99 -9.99
2018/01/17 17:00 EST    0.64   1.75   19   16   21  26.6 -99.9 1023.1 -9.9 -9.999 -99.9 -99.99 -9.99
2018/01/17 17:06 EST    0.70   1.87   20   20   22  26.4 -99.9 1023.1 -9.9 -9.999 -99.9 -99.99 -9.99
2018/01/17 17:12 EST    0.76   2.00   20   21   23  26.8 -99.9 1023.1 -9.9 -9.999 -99.9 -99.99 -9.99
2018/01/17 17:18 EST    0.82   1.97   19   16   23  26.6 -99.9 1022.9 -9.9 -9.999 -99.9 -99.99 -9.99
2018/01/17 17:24 EST    0.88   2.04   20   18   22  26.2 -99.9 1022.8 -9.9 -9.999 -99.9 -99.99 -9.99
2018/01/17 17:30 EST    0.95   2.13   20   18   23  26.2 -99.9 1022.7 -9.9 -9.999 -99.9 -99.99 -9.99
2018/01/17 17:36 EST    1.01   2.12   21   14   25  26.2 -99.9 1022.6 -9.9 -9.999 -99.9 -99.99 -9.99
2018/01/17 17:42 EST    1.07   2.25   22   13   26  25.7 -99.9 1022.6 -9.9 -9.999 -99.9 -99.99 -9.99
2018/01/17 17:48 EST    1.13   2.31   20   10   24  26.1 -99.9 1022.6 -9.9 -9.999 -99.9 -99.99 -9.99
2018/01/17 17:54 EST    1.20   2.26   19    6   23  26.2 -99.9 1022.7 -9.9 -9.999 -99.9 -99.99 -9.99
2018/01/17 18:00 EST    1.26   2.30   18    2   23  26.6 -99.9 1022.8 -9.9 -9.999 -99.9 -99.99 -9.99
2018/01/17 18:06 EST    1.32   2.35   22    6   24  26.1 -99.9 1022.9 -9.9 -9.999 -99.9 -99.99 -9.99
2018/01/17 18:12 EST    1.38   2.40   18    5   24  26.2 -99.9 1023.0 -9.9 -9.999 -99.9 -99.99 -9.99
2018/01/17 18:18 EST    1.44   2.45   20   11   22  26.2 -99.9 1022.9 -9.9 -9.999 -99.9 -99.99 -9.99
2018/01/17 18:24 EST    1.50   2.40   20   12   24  26.1 -99.9 1022.7 -9.9 -9.999 -99.9 -99.99 -9.99
2018/01/17 18:30 EST    1.56   2.44   21    1   24  26.1 -99.9 1022.7 -9.9 -9.999 -99.9 -99.99 -9.99
2018/01/17 18:36 EST    1.61   2.53   21    3   24  26.1 -99.9 1022.6 -9.9 -9.999 -99.9 -99.99 -9.99
2018/01/17 18:42 EST    1.66   2.60   22    8   26  26.1 -99.9 1022.6 -9.9 -9.999 -99.9 -99.99 -9.99
2018/01/17 18:48 EST    1.72   2.73   22    6   26  25.9 -99.9 1022.7 -9.9 -9.999 -99.9 -99.99 -9.99
2018/01/17 18:54 EST    1.77   2.72   23    7   26  25.9 -99.9 1022.6 -9.9 -9.999 -99.9 -99.99 -9.99
2018/01/17 19:00 EST    1.81   2.83   23    5   26  25.7 -99.9 1022.4 -9.9 -9.999 -99.9 -99.99 -9.99
2018/01/17 19:06 EST    1.86   2.79   24    5   28  25.7 -99.9 1022.4 -9.9 -9.999 -99.9 -99.99 -9.99
2018/01/17 19:12 EST    1.90   2.82   23    4   27  25.7 -99.9 1022.2 -9.9 -9.999 -99.9 -99.99 -9.99
2018/01/17 19:18 EST    1.94   2.87   24   10   28  25.9 -99.9 1022.2 -9.9 -9.999 -99.9 -99.99 -9.99
2018/01/17 19:24 EST    1.98   3.09   24    4   27  25.3 -99.9 1022.1 -9.9 -9.999 -99.9 -99.99 -9.99
2018/01/17 19:30 EST    2.01   3.05   24  358   27  25.5 -99.9 1022.3 -9.9 -9.999 -99.9 -99.99 -9.99
2018/01/17 19:36 EST    2.04   3.06   23  358   27  25.5 -99.9 1022.3 -9.9 -9.999 -99.9 -99.99 -9.99
2018/01/17 19:42 EST    2.07   3.13   24   13   28  25.3 -99.9 1022.2 -9.9 -9.999 -99.9 -99.99 -9.99
2018/01/17 19:48 EST    2.09   3.10   23    9   26  25.5 -99.9 1022.1 -9.9 -9.999 -99.9 -99.99 -9.99
2018/01/17 19:54 EST    2.12   3.06   24    4   27  25.5 -99.9 1022.2 -9.9 -9.999 -99.9 -99.99 -9.99
2018/01/17 20:00 EST    2.14   3.20   23    1   26  25.5 -99.9 1022.3 -9.9 -9.999 -99.9 -99.99 -9.99
2018/01/17 20:06 EST    2.15   3.27   24  354   27  25.2 -99.9 1022.2 -9.9 -9.999 -99.9 -99.99 -9.99
2018/01/17 20:12 EST    2.17   3.24   24    3   28  25.2 -99.9 1022.2 -9.9 -9.999 -99.9 -99.99 -9.99
2018/01/17 20:18 EST    2.18   3.26   21  356   27  25.5 -99.9 1022.2 -9.9 -9.999 -99.9 -99.99 -9.99
2018/01/17 20:24 EST    2.18   3.27   23    5   27  25.0 -99.9 1022.2 -9.9 -9.999 -99.9 -99.99 -9.99
2018/01/17 20:30 EST    2.19   3.23   24  359   26  25.0 -99.9 1022.2 -9.9 -9.999 -99.9 -99.99 -9.99
2018/01/17 20:36 EST    2.19   3.33   25    5   27  25.0 -99.9 1021.9 -9.9 -9.999 -99.9 -99.99 -9.99
2018/01/17 20:42 EST    2.19   3.25   21    6   27  25.3 -99.9 1022.2 -9.9 -9.999 -99.9 -99.99 -9.99
2018/01/17 20:48 EST    2.19   3.20   22  360   27  25.3 -99.9 1022.2 -9.9 -9.999 -99.9 -99.99 -9.99
2018/01/17 20:54 EST    2.18   3.05   23    2   26  25.2 -99.9 1022.1 -9.9 -9.999 -99.9 -99.99 -9.99
2018/01/17 21:00 EST    2.17   3.15   25    7   29  25.2 -99.9 1021.8 -9.9 -9.999 -99.9 -99.99 -9.99
2018/01/17 21:06 EST    2.16   3.03   24    5   28  25.2 -99.9 1021.8 -9.9 -9.999 -99.9 -99.99 -9.99
2018/01/17 21:12 EST    2.15   3.10   25    5   29  25.2 -99.9 1021.6 -9.9 -9.999 -99.9 -99.99 -9.99
2018/01/17 21:18 EST    2.13   3.07   25    5   28  25.3 -99.9 1021.8 -9.9 -9.999 -99.9 -99.99 -9.99
2018/01/17 21:24 EST    2.11   3.07   23    0   28  25.3 -99.9 1021.9 -9.9 -9.999 -99.9 -99.99 -9.99
2018/01/17 21:30 EST    2.09   3.07   25    1   28  25.2 -99.9 1021.7 -9.9 -9.999 -99.9 -99.99 -9.99
2018/01/17 21:36 EST    2.07   3.02   24    4   29  25.2 -99.9 1021.8 -9.9 -9.999 -99.9 -99.99 -9.99
2018/01/17 21:42 EST    2.04   3.03   25    3   28  24.8 -99.9 1021.4 -9.9 -9.999 -99.9 -99.99 -9.99
2018/01/17 21:48 EST    2.02   3.14   27    6   30  24.6 -99.9 1021.2 -9.9 -9.999 -99.9 -99.99 -9.99
2018/01/17 21:54 EST    1.99   2.91   25    6   30  25.0 -99.9 1021.2 -9.9 -9.999 -99.9 -99.99 -9.99
2018/01/17 22:00 EST    1.96   3.02   25    5   30  25.0 -99.9 1021.1 -9.9 -9.999 -99.9 -99.99 -9.99
2018/01/17 22:06 EST    1.92   3.05   26    6   30  25.0 -99.9 1021.2 -9.9 -9.999 -99.9 -99.99 -9.99
2018/01/17 22:12 EST    1.89   3.08   24    2   30  25.3 -99.9 1021.1 -9.9 -9.999 -99.9 -99.99 -9.99
2018/01/17 22:18 EST    1.85   2.95   25    4   30  25.0 -99.9 1021.0 -9.9 -9.999 -99.9 -99.99 -9.99
2018/01/17 22:24 EST    1.81   2.89   27    6   31  25.2 -99.9 1021.1 -9.9 -9.999 -99.9 -99.99 -9.99
2018/01/17 22:30 EST    1.77   2.95   28    9   32  25.3 -99.9 1020.8 -9.9 -9.999 -99.9 -99.99 -9.99
2018/01/17 22:36 EST    1.72   2.85   26    1   30  25.3 -99.9 1021.1 -9.9 -9.999 -99.9 -99.99 -9.99
2018/01/17 22:42 EST    1.67   2.79   26    4   30  25.2 -99.9 1021.0 -9.9 -9.999 -99.9 -99.99 -9.99
2018/01/17 22:48 EST    1.63   2.88   26    5   31  25.5 -99.9 1020.9 -9.9 -9.999 -99.9 -99.99 -9.99
2018/01/17 22:54 EST    1.57   2.78   25    1   31  25.7 -99.9 1020.9 -9.9 -9.999 -99.9 -99.99 -9.99
2018/01/17 23:00 EST    1.52   2.70   26    2   33  25.7 -99.9 1020.7 -9.9 -9.999 -99.9 -99.99 -9.99
2018/01/17 23:06 EST    1.47   2.65   27    8   31  25.5 -99.9 1020.7 -9.9 -9.999 -99.9 -99.99 -9.99
2018/01/17 23:12 EST    1.41   2.57   26    1   31  25.7 -99.9 1020.7 -9.9 -9.999 -99.9 -99.99 -9.99
2018/01/17 23:18 EST    1.35   2.43   25    6   31  26.2 -99.9 1020.3 -9.9 -9.999 -99.9 -99.99 -9.99
2018/01/17 23:24 EST    1.29   2.40   26    4   31  26.1 -99.9 1020.3 -9.9 -9.999 -99.9 -99.99 -9.99
2018/01/17 23:30 EST    1.23   2.39   27    7   33  26.1 -99.9 1020.1 -9.9 -9.999 -99.9 -99.99 -9.99
2018/01/17 23:36 EST    1.17   2.47   26   12   34  26.2 -99.9 1020.1 -9.9 -9.999 -99.9 -99.99 -9.99
2018/01/17 23:42 EST    1.11   2.21   30    4   32  26.1 -99.9 1020.0 -9.9 -9.999 -99.9 -99.99 -9.99
2018/01/17 23:48 EST    1.05   2.23   29   10   32  26.4 -99.9 1019.5 -9.9 -9.999 -99.9 -99.99 -9.99
2018/01/17 23:54 EST    0.99   2.18   29    9   34  26.6 -99.9 1019.3 -9.9 -9.999 -99.9 -99.99 -9.99
2018/01/18 00:00 EST    0.92   2.22   26    4   33  27.1 -99.9 1019.0 -9.9 -9.999 -99.9 -99.99 -9.99
2018/01/18 00:06 EST    0.86   2.17   30    4   36  26.8 -99.9 1018.3 -9.9 -9.999 -99.9 -99.99 -9.99
2018/01/18 00:12 EST    0.80   2.24   29  360   37  26.8 -99.9 1018.8 -9.9 -9.999 -99.9 -99.99 -9.99
2018/01/18 00:18 EST    0.73   2.27   27    7   35  26.8 -99.9 1019.0 -9.9 -9.999 -99.9 -99.99 -9.99
2018/01/18 00:24 EST    0.67   2.16   29    9   35  26.6 -99.9 1018.7 -9.9 -9.999 -99.9 -99.99 -9.99
2018/01/18 00:30 EST    0.61   2.23   29    6   34  26.8 -99.9 1018.4 -9.9 -9.999 -99.9 -99.99 -9.99
2018/01/18 00:36 EST    0.56   1.92   28    1   34  26.8 -99.9 1018.8 -9.9 -9.999 -99.9 -99.99 -9.99
2018/01/18 00:42 EST    0.50   1.97   27    7   32  26.8 -99.9 1019.4 -9.9 -9.999 -99.9 -99.99 -9.99
2018/01/18 00:48 EST    0.44   1.89   28    5   32  26.8 -99.9 1019.0 -9.9 -9.999 -99.9 -99.99 -9.99
2018/01/18 00:54 EST    0.39   1.83   28  359   33  27.0 -99.9 1019.1 -9.9 -9.999 -99.9 -99.99 -9.99
2018/01/18 01:00 EST    0.34   2.09   29    7   33  26.8 -99.9 1018.7 -9.9 -9.999 -99.9 -99.99 -9.99
2018/01/18 01:06 EST    0.29   1.95   29    6   36  26.8 -99.9 1018.7 -9.9 -9.999 -99.9 -99.99 -9.99
2018/01/18 01:12 EST    0.24   1.81   26    5   33  27.0 -99.9 1019.1 -9.9 -9.999 -99.9 -99.99 -9.99
2018/01/18 01:18 EST    0.20   1.62   25    3   32  27.1 -99.9 1019.5 -9.9 -9.999 -99.9 -99.99 -9.99
2018/01/18 01:24 EST    0.16   1.75   26  356   31  26.8 -99.9 1019.4 -9.9 -9.999 -99.9 -99.99 -9.99
2018/01/18 01:30 EST    0.12   1.73   28    3   34  27.0 -99.9 1018.6 -9.9 -9.999 -99.9 -99.99 -9.99
2018/01/18 01:36 EST    0.09   1.72   25  352   32  26.8 -99.9 1018.7 -9.9 -9.999 -99.9 -99.99 -9.99
2018/01/18 01:42 EST    0.05   1.57   26  359   32  26.2 -99.9 1018.8 -9.9 -9.999 -99.9 -99.99 -9.99
2018/01/18 01:48 EST    0.02   1.65   26  357   31  25.7 -99.9 1019.1 -9.9 -9.999 -99.9 -99.99 -9.99
2018/01/18 01:54 EST   -0.00   1.47   27  355   31  25.7 -99.9 1018.8 -9.9 -9.999 -99.9 -99.99 -9.99
2018/01/18 02:00 EST   -0.03   1.36   29  355   33  25.7 -99.9 1018.2 -9.9 -9.999 -99.9 -99.99 -9.99
2018/01/18 02:06 EST   -0.04   1.36   27    3   33  25.9 -99.9 1018.6 -9.9 -9.999 -99.9 -99.99 -9.99
2018/01/18 02:12 EST   -0.06   1.49   28  358   33  25.9 -99.9 1018.4 -9.9 -9.999 -99.9 -99.99 -9.99
2018/01/18 02:18 EST   -0.07   1.57   29  357   32  26.1 -99.9 1018.3 -9.9 -9.999 -99.9 -99.99 -9.99
2018/01/18 02:24 EST   -0.08   1.32   26    3   33  26.4 -99.9 1018.4 -9.9 -9.999 -99.9 -99.99 -9.99
2018/01/18 02:30 EST   -0.09   1.58   29  355   33  26.1 -99.9 1017.7 -9.9 -9.999 -99.9 -99.99 -9.99
2018/01/18 02:36 EST   -0.09   1.41   30  359   36  26.1 -99.9 1017.4 -9.9 -9.999 -99.9 -99.99 -9.99
2018/01/18 02:42 EST   -0.09   1.41   26  350   32  26.1 -99.9 1017.9 -9.9 -9.999 -99.9 -99.99 -9.99
2018/01/18 02:48 EST   -0.09   1.27   27  352   32  25.9 -99.9 1018.3 -9.9 -9.999 -99.9 -99.99 -9.99
2018/01/18 02:54 EST   -0.08   1.53   25  347   31  25.5 -99.9 1018.7 -9.9 -9.999 -99.9 -99.99 -9.99
2018/01/18 03:00 EST   -0.07   1.23   23  354   30  25.5 -99.9 1018.8 -9.9 -9.999 -99.9 -99.99 -9.99
2018/01/18 03:06 EST   -0.06   1.28   24  356   30  25.3 -99.9 1018.7 -9.9 -9.999 -99.9 -99.99 -9.99
2018/01/18 03:12 EST   -0.04   1.40   24  353   29  25.2 -99.9 1018.7 -9.9 -9.999 -99.9 -99.99 -9.99
2018/01/18 03:18 EST   -0.02   1.50   26  347   32  25.2 -99.9 1018.5 -9.9 -9.999 -99.9 -99.99 -9.99
2018/01/18 03:24 EST    0.00   1.26   24  344   30  25.0 -99.9 1018.8 -9.9 -9.999 -99.9 -99.99 -9.99
2018/01/18 03:30 EST    0.03   1.32   25  353   30  25.3 -99.9 1018.7 -9.9 -9.999 -99.9 -99.99 -9.99
2018/01/18 03:36 EST    0.06   1.56   25    5   29  25.0 -99.9 1018.7 -9.9 -9.999 -99.9 -99.99 -9.99
2018/01/18 03:42 EST    0.09   1.40   22  359   30  25.0 -99.9 1019.0 -9.9 -9.999 -99.9 -99.99 -9.99
2018/01/18 03:48 EST    0.13   1.44   25    2   30  25.0 -99.9 1019.1 -9.9 -9.999 -99.9 -99.99 -9.99
2018/01/18 03:54 EST    0.17   1.58   24    7   30  24.8 -99.9 1019.2 -9.9 -9.999 -99.9 -99.99 -9.99
2018/01/18 04:00 EST    0.21   1.59   25    3   29  24.8 -99.9 1019.3 -9.9 -9.999 -99.9 -99.99 -9.99
2018/01/18 04:06 EST    0.26   1.60   25    2   30  24.8 -99.9 1019.2 -9.9 -9.999 -99.9 -99.99 -9.99
2018/01/18 04:12 EST    0.30   1.53   25    3   29  24.8 -99.9 1019.4 -9.9 -9.999 -99.9 -99.99 -9.99
2018/01/18 04:18 EST    0.35   1.73   22  356   26  25.2 -99.9 1019.4 -9.9 -9.999 -99.9 -99.99 -9.99
2018/01/18 04:24 EST    0.41   1.75   24  353   27  24.8 -99.9 1019.3 -9.9 -9.999 -99.9 -99.99 -9.99
2018/01/18 04:30 EST    0.46   1.67   25  349   28  24.8 -99.9 1019.1 -9.9 -9.999 -99.9 -99.99 -9.99
2018/01/18 04:36 EST    0.52   1.57   25  346   29  24.8 -99.9 1019.2 -9.9 -9.999 -99.9 -99.99 -9.99
2018/01/18 04:42 EST    0.58   1.62   24  347   30  24.8 -99.9 1019.2 -9.9 -9.999 -99.9 -99.99 -9.99
2018/01/18 04:48 EST    0.64   1.71   23  337   27  24.4 -99.9 1019.3 -9.9 -9.999 -99.9 -99.99 -9.99
2018/01/18 04:54 EST    0.70   1.83   23  343   28  24.4 -99.9 1019.5 -9.9 -9.999 -99.9 -99.99 -9.99
2018/01/18 05:00 EST    0.77   1.88   23  347   27  24.6 -99.9 1019.7 -9.9 -9.999 -99.9 -99.99 -9.99
2018/01/18 05:06 EST    0.83   1.80   23  348   28  24.6 -99.9 1019.6 -9.9 -9.999 -99.9 -99.99 -9.99
2018/01/18 05:12 EST    0.90   2.06   22  340   27  24.3 -99.9 1019.6 -9.9 -9.999 -99.9 -99.99 -9.99
2018/01/18 05:18 EST    0.97   2.24   22  336   26  24.3 -99.9 1019.5 -9.9 -9.999 -99.9 -99.99 -9.99
2018/01/18 05:24 EST    1.04   2.17   22  331   25  24.1 -99.9 1019.5 -9.9 -9.999 -99.9 -99.99 -9.99
2018/01/18 05:30 EST    1.11   2.16   20  337   26  23.9 -99.9 1019.4 -9.9 -9.999 -99.9 -99.99 -9.99
2018/01/18 05:36 EST    1.18   2.36   23  332   26  23.7 -99.9 1019.3 -9.9 -9.999 -99.9 -99.99 -9.99
2018/01/18 05:42 EST    1.25   2.38   21  333   25  23.9 -99.9 1019.1 -9.9 -9.999 -99.9 -99.99 -9.99
2018/01/18 05:48 EST    1.32   2.37   22  335   25  23.9 -99.9 1019.1 -9.9 -9.999 -99.9 -99.99 -9.99
2018/01/18 05:54 EST    1.39   2.44   21  330   27  23.9 -99.9 1019.0 -9.9 -9.999 -99.9 -99.99 -9.99
2018/01/18 06:00 EST    1.46   2.55   22  327   27  23.7 -99.9 1019.2 -9.9 -9.999 -99.9 -99.99 -9.99
2018/01/18 06:06 EST    1.53   2.47   19  331   25  23.9 -99.9 1019.7 -9.9 -9.999 -99.9 -99.99 -9.99
2018/01/18 06:12 EST    1.60   2.46   20  336   24  23.9 -99.9 1020.0 -9.9 -9.999 -99.9 -99.99 -9.99
2018/01/18 06:18 EST    1.67   2.68   22  333   25  23.7 -99.9 1020.1 -9.9 -9.999 -99.9 -99.99 -9.99
2018/01/18 06:24 EST    1.74   2.73   18  341   23  24.1 -99.9 1020.5 -9.9 -9.999 -99.9 -99.99 -9.99
2018/01/18 06:30 EST    1.81   2.80   21  338   24  23.5 -99.9 1020.6 -9.9 -9.999 -99.9 -99.99 -9.99
2018/01/18 06:36 EST    1.88   2.75   20  332   22  23.7 -99.9 1020.6 -9.9 -9.999 -99.9 -99.99 -9.99
2018/01/18 06:42 EST    1.94   2.73   20  336   23  23.7 -99.9 1020.7 -9.9 -9.999 -99.9 -99.99 -9.99
2018/01/18 06:48 EST    2.00   2.84   21  338   24  23.5 -99.9 1020.8 -9.9 -9.999 -99.9 -99.99 -9.99
2018/01/18 06:54 EST    2.07   2.91   18  344   23  23.7 -99.9 1021.0 -9.9 -9.999 -99.9 -99.99 -9.99
2018/01/18 07:00 EST    2.13   2.95   18  345   20  23.7 -99.9 1020.9 -9.9 -9.999 -99.9 -99.99 -9.99
2018/01/18 07:06 EST    2.18   2.97   18  341   21  23.5 -99.9 1021.0 -9.9 -9.999 -99.9 -99.99 -9.99
2018/01/18 07:12 EST    2.24   3.08   17  337   20  23.7 -99.9 1021.1 -9.9 -9.999 -99.9 -99.99 -9.99
2018/01/18 07:18 EST    2.29   3.07   18  342   21  23.7 -99.9 1021.0 -9.9 -9.999 -99.9 -99.99 -9.99
2018/01/18 07:24 EST    2.34   3.11   20  338   23  23.9 -99.9 1021.1 -9.9 -9.999 -99.9 -99.99 -9.99
2018/01/18 07:30 EST    2.39   3.15   19  344   23  24.3 -99.9 1021.0 -9.9 -9.999 -99.9 -99.99 -9.99
2018/01/18 07:36 EST    2.43   3.24   19  339   23  24.1 -99.9 1021.0 -9.9 -9.999 -99.9 -99.99 -9.99
2018/01/18 07:42 EST    2.47   3.35   20  336   22  24.3 -99.9 1021.0 -9.9 -9.999 -99.9 -99.99 -9.99
2018/01/18 07:48 EST    2.51   3.29   19  341   24  24.3 -99.9 1021.0 -9.9 -9.999 -99.9 -99.99 -9.99
2018/01/18 07:54 EST    2.55   3.27   17  337   22  24.4 -99.9 1021.1 -9.9 -9.999 -99.9 -99.99 -9.99
2018/01/18 08:00 EST    2.58   3.32   18  339   22  24.3 -99.9 1021.0 -9.9 -9.999 -99.9 -99.99 -9.99
2018/01/18 08:06 EST    2.61   3.30   19  346   23  24.4 -99.9 1020.9 -9.9 -9.999 -99.9 -99.99 -9.99
2018/01/18 08:12 EST    2.63   3.33   19  342   23  24.6 -99.9 1020.8 -9.9 -9.999 -99.9 -99.99 -9.99
2018/01/18 08:18 EST    2.65   3.41   18  348   22  24.8 -99.9 1020.9 -9.9 -9.999 -99.9 -99.99 -9.99
2018/01/18 08:24 EST    2.67   3.35   20  336   23  24.8 -99.9 1020.8 -9.9 -9.999 -99.9 -99.99 -9.99
2018/01/18 08:30 EST    2.69   3.38   20  335   23  24.8 -99.9 1020.8 -9.9 -9.999 -99.9 -99.99 -9.99
2018/01/18 08:36 EST    2.70   3.42   21  338   24  24.6 -99.9 1020.9 -9.9 -9.999 -99.9 -99.99 -9.99
2018/01/18 08:42 EST    2.71   3.57   20  335   25  24.8 -99.9 1021.1 -9.9 -9.999 -99.9 -99.99 -9.99
2018/01/18 08:48 EST    2.71   3.49   17  327   24  24.6 -99.9 1021.2 -9.9 -9.999 -99.9 -99.99 -9.99
2018/01/18 08:54 EST    2.71   3.64   17  331   21  24.4 -99.9 1021.3 -9.9 -9.999 -99.9 -99.99 -9.99
2018/01/18 09:00 EST    2.71   3.47   14  331   18  24.6 -99.9 1021.4 -9.9 -9.999 -99.9 -99.99 -9.99
2018/01/18 09:06 EST    2.71   3.46   15  330   17  24.6 -99.9 1021.4 -9.9 -9.999 -99.9 -99.99 -9.99
2018/01/18 09:12 EST    2.70   3.49   16  326   19  24.6 -99.9 1021.4 -9.9 -9.999 -99.9 -99.99 -9.99
2018/01/18 09:18 EST    2.69   3.46   17  331   20  24.4 -99.9 1021.5 -9.9 -9.999 -99.9 -99.99 -9.99
2018/01/18 09:24 EST    2.67   3.49   15  323   18  24.6 -99.9 1021.4 -9.9 -9.999 -99.9 -99.99 -9.99
2018/01/18 09:30 EST    2.66   3.50   16  321   17  24.6 -99.9 1021.5 -9.9 -9.999 -99.9 -99.99 -9.99
2018/01/18 09:36 EST    2.64   3.46   16  322   19  24.3 -99.9 1021.5 -9.9 -9.999 -99.9 -99.99 -9.99
2018/01/18 09:42 EST    2.62   3.45   16  323   19  24.4 -99.9 1021.5 -9.9 -9.999 -99.9 -99.99 -9.99
2018/01/18 09:48 EST    2.59   3.42   17  320   20  24.3 -99.9 1021.5 -9.9 -9.999 -99.9 -99.99 -9.99
2018/01/18 09:54 EST    2.56   3.38   17  322   19  24.3 -99.9 1021.6 -9.9 -9.999 -99.9 -99.99 -9.99
2018/01/18 10:00 EST    2.53   3.42   17  325   22  24.3 -99.9 1021.6 -9.9 -9.999 -99.9 -99.99 -9.99
2018/01/18 10:06 EST    2.50   3.33   17  321   20  24.4 -99.9 1021.6 -9.9 -9.999 -99.9 -99.99 -9.99
2018/01/18 10:12 EST    2.47   3.34   16  321   19  24.8 -99.9 1021.6 -9.9 -9.999 -99.9 -99.99 -9.99
2018/01/18 10:18 EST    2.43   3.29   17  316   20  24.4 -99.9 1021.5 -9.9 -9.999 -99.9 -99.99 -9.99
2018/01/18 10:24 EST    2.39   3.22   17  320   20  24.8 -99.9 1021.5 -9.9 -9.999 -99.9 -99.99 -9.99
2018/01/18 10:30 EST    2.35   3.26   17  330   20  25.0 -99.9 1021.5 -9.9 -9.999 -99.9 -99.99 -9.99
2018/01/18 10:36 EST    2.30   3.16   16  321   18  25.0 -99.9 1021.5 -9.9 -9.999 -99.9 -99.99 -9.99
2018/01/18 10:42 EST    2.26   3.18   17  320   20  25.2 -99.9 1021.4 -9.9 -9.999 -99.9 -99.99 -9.99
2018/01/18 10:48 EST    2.21   3.01   17  326   19  25.5 -99.9 1021.4 -9.9 -9.999 -99.9 -99.99 -9.99
2018/01/18 10:54 EST    2.15   2.90   16  325   20  25.9 -99.9 1021.4 -9.9 -9.999 -99.9 -99.99 -9.99
2018/01/18 11:00 EST    2.10   2.84   17  317   20  25.7 -99.9 1021.3 -9.9 -9.999 -99.9 -99.99 -9.99
2018/01/18 11:06 EST    2.04   2.72   18  321   21  25.7 -99.9 1021.3 -9.9 -9.999 -99.9 -99.99 -9.99
2018/01/18 11:12 EST    1.99   2.67   18  314   20  25.9 -99.9 1021.3 -9.9 -9.999 -99.9 -99.99 -9.99
2018/01/18 11:18 EST    1.93   2.55   16  313   19  25.9 -99.9 1021.2 -9.9 -9.999 -99.9 -99.99 -9.99
2018/01/18 11:24 EST    1.86   2.49   15  319   18  26.1 -99.9 1021.1 -9.9 -9.999 -99.9 -99.99 -9.99
2018/01/18 11:30 EST    1.80   2.44   16  308   19  26.1 -99.9 1020.9 -9.9 -9.999 -99.9 -99.99 -9.99
2018/01/18 11:36 EST    1.73   2.37   17  309   18  26.1 -99.9 1020.7 -9.9 -9.999 -99.9 -99.99 -9.99
2018/01/18 11:42 EST    1.66   2.28   16  317   19  26.4 -99.9 1020.5 -9.9 -9.999 -99.9 -99.99 -9.99
2018/01/18 11:48 EST    1.59   2.22   15  314   18  26.6 -99.9 1020.4 -9.9 -9.999 -99.9 -99.99 -9.99
2018/01/18 11:54 EST    1.52   2.17   17  311   19  27.1 -99.9 1020.3 -9.9 -9.999 -99.9 -99.99 -9.99
2018/01/18 12:00 EST    1.45   2.04   15  304   17  27.5 -99.9 1020.2 -9.9 -9.999 -99.9 -99.99 -9.99
2018/01/18 12:06 EST    1.38   1.97   14  301   18  27.7 -99.9 1020.2 -9.9 -9.999 -99.9 -99.99 -9.99
2018/01/18 12:12 EST    1.31   1.90   13  296   15  27.9 -99.9 1020.1 -9.9 -9.999 -99.9 -99.99 -9.99
2018/01/18 12:18 EST    1.24   1.80   11  281   13  27.9 -99.9 1019.9 -9.9 -9.999 -99.9 -99.99 -9.99
2018/01/18 12:24 EST    1.16   1.77   10  286   13  28.2 -99.9 1019.8 -9.9 -9.999 -99.9 -99.99 -9.99
2018/01/18 12:30 EST    1.09   1.74   10  288   13  28.6 -99.9 1019.7 -9.9 -9.999 -99.9 -99.99 -9.99
2018/01/18 12:36 EST    1.02   1.68   13  285   15  28.6 -99.9 1019.6 -9.9 -9.999 -99.9 -99.99 -9.99
2018/01/18 12:42 EST    0.94   1.61   13  291   15  29.1 -99.9 1019.7 -9.9 -9.999 -99.9 -99.99 -9.99
2018/01/18 12:48 EST    0.87   1.56   12  290   15  29.5 -99.9 1019.7 -9.9 -9.999 -99.9 -99.99 -9.99
2018/01/18 12:54 EST    0.80   1.51   13  296   15  29.8 -99.9 1019.6 -9.9 -9.999 -99.9 -99.99 -9.99
2018/01/18 13:00 EST    0.73   1.50   12  292   15  30.2 -99.9 1019.5 -9.9 -9.999 -99.9 -99.99 -9.99
2018/01/18 13:06 EST    0.67   1.38   12  289   16  30.6 -99.9 1019.6 -9.9 -9.999 -99.9 -99.99 -9.99
2018/01/18 13:12 EST    0.60   1.32   14  282   15  30.9 -99.9 1019.5 -9.9 -9.999 -99.9 -99.99 -9.99
2018/01/18 13:18 EST    0.54   1.21   14  273   16  30.7 -99.9 1019.3 -9.9 -9.999 -99.9 -99.99 -9.99
2018/01/18 13:24 EST    0.48   1.19   12  273   15  30.7 -99.9 1019.2 -9.9 -9.999 -99.9 -99.99 -9.99
2018/01/18 13:30 EST    0.42   1.06   13  275   15  31.1 -99.9 1019.1 -9.9 -9.999 -99.9 -99.99 -9.99
2018/01/18 13:36 EST    0.36   1.02   14  277   16  31.5 -99.9 1019.0 -9.9 -9.999 -99.9 -99.99 -9.99
2018/01/18 13:42 EST    0.31   0.94   15  280   18  31.6 -99.9 1018.7 -9.9 -9.999 -99.9 -99.99 -9.99
2018/01/18 13:48 EST    0.26   0.87   15  273   17  31.6 -99.9 1018.7 -9.9 -9.999 -99.9 -99.99 -9.99
2018/01/18 13:54 EST    0.21   0.86   14  272   17  31.8 -99.9 1018.8 -9.9 -9.999 -99.9 -99.99 -9.99
2018/01/18 14:00 EST    0.16   0.78   13  276   15  32.2 -99.9 1018.7 -9.9 -9.999 -99.9 -99.99 -9.99
2018/01/18 14:06 EST    0.12   0.75   13  277   16  32.4 -99.9 1018.9 -9.9 -9.999 -99.9 -99.99 -9.99
2018/01/18 14:12 EST    0.08   0.70   14  262   16  32.4 -99.9 1018.8 -9.9 -9.999 -99.9 -99.99 -9.99
2018/01/18 14:18 EST    0.05   0.59   14  267   16  32.5 -99.9 1018.7 -9.9 -9.999 -99.9 -99.99 -9.99
2018/01/18 14:24 EST    0.01   0.51   11  273   16  32.7 -99.9 1018.6 -9.9 -9.999 -99.9 -99.99 -9.99
2018/01/18 14:30 EST   -0.02   0.51   13  268   14  32.9 -99.9 1018.4 -9.9 -9.999 -99.9 -99.99 -9.99
2018/01/18 14:36 EST   -0.04   0.47   12  268   15  33.1 -99.9 1018.3 -9.9 -9.999 -99.9 -99.99 -9.99
2018/01/18 14:42 EST   -0.07   0.38   14  269   16  33.1 -99.9 1018.3 -9.9 -9.999 -99.9 -99.99 -9.99
2018/01/18 14:48 EST   -0.09   0.37   15  264   17  33.3 -99.9 1018.2 -9.9 -9.999 -99.9 -99.99 -9.99
2018/01/18 14:54 EST   -0.10   0.34   13  269   16  33.3 -99.9 1018.2 -9.9 -9.999 -99.9 -99.99 -9.99
2018/01/18 15:00 EST   -0.11   0.35   12  267   15  33.3 -99.9 1018.2 -9.9 -9.999 -99.9 -99.99 -9.99
2018/01/18 15:06 EST   -0.12   0.35   12  263   15  33.3 -99.9 1018.1 -9.9 -9.999 -99.9 -99.99 -9.99
2018/01/18 15:12 EST   -0.13   0.33   13  262   15  33.3 -99.9 1018.0 -9.9 -9.999 -99.9 -99.99 -9.99
2018/01/18 15:18 EST   -0.13   0.30   13  270   16  33.6 -99.9 1017.9 -9.9 -9.999 -99.9 -99.99 -9.99
2018/01/18 15:24 EST   -0.13   0.26   16  268   18  34.2 -99.9 1017.8 -9.9 -9.999 -99.9 -99.99 -9.99
2018/01/18 15:30 EST   -0.13   0.33   13  267   17  34.5 -99.9 1017.9 -9.9 -9.999 -99.9 -99.99 -9.99
2018/01/18 15:36 EST   -0.12   0.30   16  269   18  34.7 -99.9 1017.9 -9.9 -9.999 -99.9 -99.99 -9.99
2018/01/18 15:42 EST   -0.11   0.34   16  267   18  34.7 -99.9 1018.0 -9.9 -9.999 -99.9 -99.99 -9.99
2018/01/18 15:48 EST   -0.10   0.34   15  265   18  34.9 -99.9 1018.0 -9.9 -9.999 -99.9 -99.99 -9.99
2018/01/18 15:54 EST   -0.08   0.36   14  267   18  35.1 -99.9 1018.0 -9.9 -9.999 -99.9 -99.99 -9.99
2018/01/18 16:00 EST   -0.06   0.31   15  267   17  35.1 -99.9 1017.9 -9.9 -9.999 -99.9 -99.99 -9.99
2018/01/18 16:06 EST   -0.03   0.40   15  262   17  35.4 -99.9 1018.0 -9.9 -9.999 -99.9 -99.99 -9.99
2018/01/18 16:12 EST   -0.01   0.43   15  258   18  35.6 -99.9 1018.1 -9.9 -9.999 -99.9 -99.99 -9.99
2018/01/18 16:18 EST    0.03   0.47   16  261   18  35.8 -99.9 1018.2 -9.9 -9.999 -99.9 -99.99 -9.99
2018/01/18 16:24 EST    0.06   0.47   15  258   17  36.0 -99.9 1018.2 -9.9 -9.999 -99.9 -99.99 -9.99
2018/01/18 16:30 EST    0.09   0.55   15  257   17  36.1 -99.9 1018.3 -9.9 -9.999 -99.9 -99.99 -9.99
2018/01/18 16:36 EST    0.13   0.59   16  258   17  36.1 -99.9 1018.3 -9.9 -9.999 -99.9 -99.99 -9.99
2018/01/18 16:42 EST    0.17   0.62   17  260   18  36.3 -99.9 1018.3 -9.9 -9.999 -99.9 -99.99 -9.99
2018/01/18 16:48 EST    0.22   0.66   16  260   18  36.1 -99.9 1018.3 -9.9 -9.999 -99.9 -99.99 -9.99
2018/01/18 16:54 EST    0.26   0.74   16  259   18  36.3 -99.9 1018.3 -9.9 -9.999 -99.9 -99.99 -9.99
2018/01/18 17:00 EST    0.31   0.78   16  257   18  36.1 -99.9 1018.3 -9.9 -9.999 -99.9 -99.99 -9.99
2018/01/18 17:06 EST    0.36   0.80   17  258   20  36.1 -99.9 1018.3 -9.9 -9.999 -99.9 -99.99 -9.99
2018/01/18 17:12 EST    0.41   0.84   16  255   20  36.0 -99.9 1018.3 -9.9 -9.999 -99.9 -99.99 -9.99
2018/01/18 17:18 EST    0.47   0.92   19  257   22  35.8 -99.9 1018.3 -9.9 -9.999 -99.9 -99.99 -9.99
2018/01/18 17:24 EST    0.52   0.97   21  257   24  35.6 -99.9 1018.4 -9.9 -9.999 -99.9 -99.99 -9.99
2018/01/18 17:30 EST    0.58   1.06   21  260   24  35.6 -99.9 1018.5 -9.9 -9.999 -99.9 -99.99 -9.99
2018/01/18 17:36 EST    0.64   1.09   17  253   22  35.4 -99.9 1018.7 -9.9 -9.999 -99.9 -99.99 -9.99
2018/01/18 17:42 EST    0.70   1.15   17  249   19  35.2 -99.9 1018.7 -9.9 -9.999 -99.9 -99.99 -9.99
2018/01/18 17:48 EST    0.76   1.23   17  253   19  35.2 -99.9 1018.7 -9.9 -9.999 -99.9 -99.99 -9.99
2018/01/18 17:54 EST    0.82   1.28   18  254   20  35.2 -99.9 1018.8 -9.9 -9.999 -99.9 -99.99 -9.99
2018/01/18 18:00 EST    0.88   1.33   18  255   20  35.1 -99.9 1018.8 -9.9 -9.999 -99.9 -99.99 -9.99
2018/01/18 18:06 EST    0.95   1.37   17  251   21  34.9 -99.9 1018.8 -9.9 -9.999 -99.9 -99.99 -9.99
2018/01/18 18:12 EST    1.01   1.41   19  252   21  34.9 -99.9 1018.8 -9.9 -9.999 -99.9 -99.99 -9.99
2018/01/18 18:18 EST    1.07   1.45   18  249   21  34.7 -99.9 1019.0 -9.9 -9.999 -99.9 -99.99 -9.99
2018/01/18 18:24 EST    1.14   1.48   19  251   22  34.7 -99.9 1019.0 -9.9 -9.999 -99.9 -99.99 -9.99
2018/01/18 18:30 EST    1.20   1.54   19  254   22  34.7 -99.9 1019.1 -9.9 -9.999 -99.9 -99.99 -9.99
2018/01/18 18:36 EST    1.26   1.63   20  257   23  34.5 -99.9 1019.0 -9.9 -9.999 -99.9 -99.99 -9.99
2018/01/18 18:42 EST    1.32   1.68   24  261   25  34.5 -99.9 1019.0 -9.9 -9.999 -99.9 -99.99 -9.99
2018/01/18 18:48 EST    1.38   1.71   22  257   25  34.5 -99.9 1019.1 -9.9 -9.999 -99.9 -99.99 -9.99
2018/01/18 18:54 EST    1.44   1.71   20  257   24  34.3 -99.9 1019.2 -9.9 -9.999 -99.9 -99.99 -9.99
2018/01/18 19:00 EST    1.50   1.71   20  258   24  34.5 -99.9 1019.2 -9.9 -9.999 -99.9 -99.99 -9.99
2018/01/18 19:06 EST    1.56   1.79   21  256   24  34.3 -99.9 1019.3 -9.9 -9.999 -99.9 -99.99 -9.99
2018/01/18 19:12 EST    1.62   1.81   20  260   23  34.5 -99.9 1019.3 -9.9 -9.999 -99.9 -99.99 -9.99
2018/01/18 19:18 EST    1.67   1.81   20  263   22  34.5 -99.9 1019.4 -9.9 -9.999 -99.9 -99.99 -9.99
2018/01/18 19:24 EST    1.72   1.85   18  260   22  34.3 -99.9 1019.5 -9.9 -9.999 -99.9 -99.99 -9.99
2018/01/18 19:30 EST    1.78   1.98   17  264   21  34.5 -99.9 1019.4 -9.9 -9.999 -99.9 -99.99 -9.99
2018/01/18 19:36 EST    1.82   1.94   18  269   23  34.5 -99.9 1019.4 -9.9 -9.999 -99.9 -99.99 -9.99
2018/01/18 19:42 EST    1.87   1.96   17  266   20  34.5 -99.9 1019.5 -9.9 -9.999 -99.9 -99.99 -9.99
2018/01/18 19:48 EST    1.92   1.98   17  263   19  34.5 -99.9 1019.5 -9.9 -9.999 -99.9 -99.99 -9.99
2018/01/18 19:54 EST    1.96   2.01   16  267   21  34.3 -99.9 1019.4 -9.9 -9.999 -99.9 -99.99 -9.99
2018/01/18 20:00 EST    2.00   2.07   17  269   21  34.3 -99.9 1019.4 -9.9 -9.999 -99.9 -99.99 -9.99
2018/01/18 20:06 EST    2.03   2.06   15  269   18  34.3 -99.9 1019.5 -9.9 -9.999 -99.9 -99.99 -9.99
2018/01/18 20:12 EST    2.07   2.07   13  275   16  34.3 -99.9 1019.4 -9.9 -9.999 -99.9 -99.99 -9.99
2018/01/18 20:18 EST    2.10   2.12   13  277   16  34.3 -99.9 1019.4 -9.9 -9.999 -99.9 -99.99 -9.99
2018/01/18 20:24 EST    2.13   2.14   13  269   16  34.3 -99.9 1019.5 -9.9 -9.999 -99.9 -99.99 -9.99
2018/01/18 20:30 EST    2.15   2.18   15  265   18  34.3 -99.9 1019.5 -9.9 -9.999 -99.9 -99.99 -9.99
2018/01/18 20:36 EST    2.17   2.18   15  264   18  34.5 -99.9 1019.5 -9.9 -9.999 -99.9 -99.99 -9.99
2018/01/18 20:42 EST    2.19   2.17   16  266   18  34.5 -99.9 1019.6 -9.9 -9.999 -99.9 -99.99 -9.99
2018/01/18 20:48 EST    2.21   2.25   16  262   18  34.5 -99.9 1019.7 -9.9 -9.999 -99.9 -99.99 -9.99
2018/01/18 20:54 EST    2.22   2.21   17  258   19  34.3 -99.9 1019.7 -9.9 -9.999 -99.9 -99.99 -9.99
2018/01/18 21:00 EST    2.23   2.17   14  256   18  34.3 -99.9 1019.8 -9.9 -9.999 -99.9 -99.99 -9.99
2018/01/18 21:06 EST    2.24   2.20   14  261   17  34.2 -99.9 1019.8 -9.9 -9.999 -99.9 -99.99 -9.99
2018/01/18 21:12 EST    2.24   2.22   16  257   18  34.2 -99.9 1019.9 -9.9 -9.999 -99.9 -99.99 -9.99
2018/01/18 21:18 EST    2.24   2.20   18  258   21  34.2 -99.9 1019.8 -9.9 -9.999 -99.9 -99.99 -9.99
2018/01/18 21:24 EST    2.24   2.27   15  250   19  33.8 -99.9 1020.0 -9.9 -9.999 -99.9 -99.99 -9.99
2018/01/18 21:30 EST    2.23   2.26   16  253   18  33.6 -99.9 1020.1 -9.9 -9.999 -99.9 -99.99 -9.99
2018/01/18 21:36 EST    2.22   2.27   15  258   18  33.4 -99.9 1020.0 -9.9 -9.999 -99.9 -99.99 -9.99
2018/01/18 21:42 EST    2.21   2.25   16  259   17  33.4 -99.9 1019.9 -9.9 -9.999 -99.9 -99.99 -9.99
2018/01/18 21:48 EST    2.20   2.22   15  259   18  33.4 -99.9 1020.0 -9.9 -9.999 -99.9 -99.99 -9.99
2018/01/18 21:54 EST    2.18   2.22   14  261   18  33.4 -99.9 1020.0 -9.9 -9.999 -99.9 -99.99 -9.99
2018/01/18 22:00 EST    2.16   2.21   12  262   14  33.6 -99.9 1020.0 -9.9 -9.999 -99.9 -99.99 -9.99
2018/01/18 22:06 EST    2.14   2.20   16  251   18  33.8 -99.9 1020.2 -9.9 -9.999 -99.9 -99.99 -9.99
2018/01/18 22:12 EST    2.12   2.19   15  248   17  33.6 -99.9 1020.3 -9.9 -9.999 -99.9 -99.99 -9.99
2018/01/18 22:18 EST    2.09   2.19   15  249   17  33.4 -99.9 1020.2 -9.9 -9.999 -99.9 -99.99 -9.99
2018/01/18 22:24 EST    2.06   2.13   14  257   18  33.4 -99.9 1020.2 -9.9 -9.999 -99.9 -99.99 -9.99
2018/01/18 22:30 EST    2.03   2.16   15  261   16  33.4 -99.9 1020.2 -9.9 -9.999 -99.9 -99.99 -9.99
2018/01/18 22:36 EST    2.00   2.12   14  263   17  33.6 -99.9 1020.2 -9.9 -9.999 -99.9 -99.99 -9.99
2018/01/18 22:42 EST    1.96   2.08   15  260   17  33.8 -99.9 1020.2 -9.9 -9.999 -99.9 -99.99 -9.99
2018/01/18 22:48 EST    1.93   2.04   14  261   17  33.8 -99.9 1020.0 -9.9 -9.999 -99.9 -99.99 -9.99
2018/01/18 22:54 EST    1.89   1.99   15  260   16  33.8 -99.9 1020.0 -9.9 -9.999 -99.9 -99.99 -9.99
2018/01/18 23:00 EST    1.85   1.92   16  258   17  33.8 -99.9 1020.1 -9.9 -9.999 -99.9 -99.99 -9.99
2018/01/18 23:06 EST    1.80   1.89   14  261   17  33.8 -99.9 1020.2 -9.9 -9.999 -99.9 -99.99 -9.99
2018/01/18 23:12 EST    1.76   1.87   15  265   17  33.8 -99.9 1020.1 -9.9 -9.999 -99.9 -99.99 -9.99
2018/01/18 23:18 EST    1.71   1.80   14  258   17  33.8 -99.9 1020.3 -9.9 -9.999 -99.9 -99.99 -9.99
2018/01/18 23:24 EST    1.66   1.77   14  260   15  33.8 -99.9 1020.3 -9.9 -9.999 -99.9 -99.99 -9.99
2018/01/18 23:30 EST    1.61   1.64   13  260   16  33.8 -99.9 1020.4 -9.9 -9.999 -99.9 -99.99 -9.99
2018/01/18 23:36 EST    1.56   1.61   14  264   16  33.8 -99.9 1020.4 -9.9 -9.999 -99.9 -99.99 -9.99
2018/01/18 23:42 EST    1.51   1.58   15  260   17  33.8 -99.9 1020.4 -9.9 -9.999 -99.9 -99.99 -9.99
2018/01/18 23:48 EST    1.45   1.46   14  261   17  33.8 -99.9 1020.5 -9.9 -9.999 -99.9 -99.99 -9.99
2018/01/18 23:54 EST    1.40   1.43   15  265   17  33.8 -99.9 1020.4 -9.9 -9.999 -99.9 -99.99 -9.99
2018/01/19 00:00 EST    1.34   1.35   14  262   16  33.8 -99.9 1020.5 -9.9 -9.999 -99.9 -99.99 -9.99
2018/01/19 00:06 EST    1.28   1.30   13  262   16  34.0 -99.9 1020.4 -9.9 -9.999 -99.9 -99.99 -9.99
2018/01/19 00:12 EST    1.22 -99.99 -999 -999 -999 -99.9 -99.9 -999.9 -9.9 -9.999 -99.9 -99.99 -9.99
2018/01/19 00:18 EST    1.16 -99.99 -999 -999 -999 -99.9 -99.9 -999.9 -9.9 -9.999 -99.9 -99.99 -9.99

Revised: 10/15/2013
NOAA / National Ocean Service
Web site owner: Center for Operational Oceanographic Products and Services